<?xml version="1.0" encoding="UTF-8" standalone="no" ?>
<gpx xmlns="http://www.topografix.com/GPX/1/1" xmlns:xsi="http://www.w3.org/2001/XMLSchema-instance" xsi:schemaLocation="http://www.topografix.com/GPX/1/1 http://www.topografix.com/GPX/1/1/gpx.xsd" version="1.1" creator="VisuGPX - https://www.visugpx.com">
  <metadata>
    <name>Topo MN du 17/11/18</name>
    <desc><![CDATA[Sortie marche nordique du 17/11/2018]]></desc>
  </metadata>
  <trk>
    <name><![CDATA[20181117_093511.gpx]]></name>
    <trkseg>
      <trkpt lat="43.433" lon="1.44314">
        <ele>212.02419</ele>
        <time>2018-11-17T08:35:14Z</time>
      </trkpt>
      <trkpt lat="43.43303" lon="1.44319">
        <ele>210.7048</ele>
        <time>2018-11-17T08:35:15Z</time>
      </trkpt>
      <trkpt lat="43.43308" lon="1.44333">
        <ele>207.34818</ele>
        <time>2018-11-17T08:35:18Z</time>
      </trkpt>
      <trkpt lat="43.43304" lon="1.44347">
        <ele>209.41948</ele>
        <time>2018-11-17T08:35:33Z</time>
      </trkpt>
      <trkpt lat="43.43304" lon="1.44347">
        <ele>209.41948</ele>
        <time>2018-11-17T08:35:33Z</time>
      </trkpt>
      <trkpt lat="43.43301" lon="1.44361">
        <ele>227.54137</ele>
        <time>2018-11-17T08:35:42Z</time>
      </trkpt>
      <trkpt lat="43.43301" lon="1.44361">
        <ele>228.38585</ele>
        <time>2018-11-17T08:35:43Z</time>
      </trkpt>
      <trkpt lat="43.43304" lon="1.44375">
        <ele>220.4796</ele>
        <time>2018-11-17T08:35:54Z</time>
      </trkpt>
      <trkpt lat="43.43304" lon="1.44375">
        <ele>220.49463</ele>
        <time>2018-11-17T08:35:55Z</time>
      </trkpt>
      <trkpt lat="43.43309" lon="1.44386">
        <ele>221.85301</ele>
        <time>2018-11-17T08:36:02Z</time>
      </trkpt>
      <trkpt lat="43.43313" lon="1.44396">
        <ele>223.18489</ele>
        <time>2018-11-17T08:36:09Z</time>
      </trkpt>
      <trkpt lat="43.43313" lon="1.4441">
        <ele>224.25572</ele>
        <time>2018-11-17T08:36:26Z</time>
      </trkpt>
      <trkpt lat="43.43306" lon="1.44421">
        <ele>224.50623</ele>
        <time>2018-11-17T08:36:29Z</time>
      </trkpt>
      <trkpt lat="43.433" lon="1.44431">
        <ele>224.52426</ele>
        <time>2018-11-17T08:36:33Z</time>
      </trkpt>
      <trkpt lat="43.43306" lon="1.44441">
        <ele>225.22603</ele>
        <time>2018-11-17T08:36:44Z</time>
      </trkpt>
      <trkpt lat="43.43314" lon="1.44449">
        <ele>225.92047</ele>
        <time>2018-11-17T08:36:51Z</time>
      </trkpt>
      <trkpt lat="43.43317" lon="1.44452">
        <ele>227.77086</ele>
        <time>2018-11-17T08:37:00Z</time>
      </trkpt>
      <trkpt lat="43.43317" lon="1.44452">
        <ele>227.77086</ele>
        <time>2018-11-17T08:37:00Z</time>
      </trkpt>
      <trkpt lat="43.43313" lon="1.44451">
        <ele>232.8641</ele>
        <time>2018-11-17T08:37:52Z</time>
      </trkpt>
      <trkpt lat="43.43313" lon="1.44451">
        <ele>232.8641</ele>
        <time>2018-11-17T08:37:52Z</time>
      </trkpt>
      <trkpt lat="43.43323" lon="1.44467">
        <ele>238.31882</ele>
        <time>2018-11-17T08:41:26Z</time>
      </trkpt>
      <trkpt lat="43.43323" lon="1.44468">
        <ele>238.1285</ele>
        <time>2018-11-17T08:41:27Z</time>
      </trkpt>
      <trkpt lat="43.43328" lon="1.44468">
        <ele>237.234</ele>
        <time>2018-11-17T08:41:38Z</time>
      </trkpt>
      <trkpt lat="43.43328" lon="1.44468">
        <ele>237.234</ele>
        <time>2018-11-17T08:41:38Z</time>
      </trkpt>
      <trkpt lat="43.43338" lon="1.44474">
        <ele>236.6206</ele>
        <time>2018-11-17T08:41:58Z</time>
      </trkpt>
      <trkpt lat="43.43348" lon="1.44474">
        <ele>235.75385</ele>
        <time>2018-11-17T08:42:07Z</time>
      </trkpt>
      <trkpt lat="43.43358" lon="1.44477">
        <ele>235.75133</ele>
        <time>2018-11-17T08:42:14Z</time>
      </trkpt>
      <trkpt lat="43.43367" lon="1.44483">
        <ele>235.75081</ele>
        <time>2018-11-17T08:42:20Z</time>
      </trkpt>
      <trkpt lat="43.43374" lon="1.44494">
        <ele>236.15146</ele>
        <time>2018-11-17T08:42:26Z</time>
      </trkpt>
      <trkpt lat="43.43374" lon="1.44509">
        <ele>236.27357</ele>
        <time>2018-11-17T08:42:33Z</time>
      </trkpt>
      <trkpt lat="43.43369" lon="1.44522">
        <ele>236.5438</ele>
        <time>2018-11-17T08:42:39Z</time>
      </trkpt>
      <trkpt lat="43.43364" lon="1.44533">
        <ele>236.86084</ele>
        <time>2018-11-17T08:42:46Z</time>
      </trkpt>
      <trkpt lat="43.43359" lon="1.44545">
        <ele>236.6922</ele>
        <time>2018-11-17T08:42:55Z</time>
      </trkpt>
      <trkpt lat="43.43353" lon="1.44557">
        <ele>236.73598</ele>
        <time>2018-11-17T08:43:03Z</time>
      </trkpt>
      <trkpt lat="43.4335" lon="1.44569">
        <ele>236.2287</ele>
        <time>2018-11-17T08:43:10Z</time>
      </trkpt>
      <trkpt lat="43.43343" lon="1.4458">
        <ele>236.10808</ele>
        <time>2018-11-17T08:43:17Z</time>
      </trkpt>
      <trkpt lat="43.43337" lon="1.44591">
        <ele>236.36867</ele>
        <time>2018-11-17T08:43:25Z</time>
      </trkpt>
      <trkpt lat="43.43332" lon="1.44602">
        <ele>236.63196</ele>
        <time>2018-11-17T08:43:31Z</time>
      </trkpt>
      <trkpt lat="43.43327" lon="1.44613">
        <ele>237.47836</ele>
        <time>2018-11-17T08:43:38Z</time>
      </trkpt>
      <trkpt lat="43.43323" lon="1.44624">
        <ele>238.20647</ele>
        <time>2018-11-17T08:43:49Z</time>
      </trkpt>
      <trkpt lat="43.43316" lon="1.44635">
        <ele>239.40416</ele>
        <time>2018-11-17T08:44:01Z</time>
      </trkpt>
      <trkpt lat="43.43315" lon="1.44637">
        <ele>239.35307</ele>
        <time>2018-11-17T08:44:02Z</time>
      </trkpt>
      <trkpt lat="43.43309" lon="1.44649">
        <ele>239.3517</ele>
        <time>2018-11-17T08:44:06Z</time>
      </trkpt>
      <trkpt lat="43.43305" lon="1.44661">
        <ele>239.39458</ele>
        <time>2018-11-17T08:44:12Z</time>
      </trkpt>
      <trkpt lat="43.43304" lon="1.44662">
        <ele>239.38202</ele>
        <time>2018-11-17T08:44:13Z</time>
      </trkpt>
      <trkpt lat="43.43296" lon="1.44674">
        <ele>238.61273</ele>
        <time>2018-11-17T08:44:25Z</time>
      </trkpt>
      <trkpt lat="43.43291" lon="1.44685">
        <ele>237.81604</ele>
        <time>2018-11-17T08:44:33Z</time>
      </trkpt>
      <trkpt lat="43.43285" lon="1.44695">
        <ele>238.10358</ele>
        <time>2018-11-17T08:44:43Z</time>
      </trkpt>
      <trkpt lat="43.43283" lon="1.44709">
        <ele>238.9112</ele>
        <time>2018-11-17T08:44:50Z</time>
      </trkpt>
      <trkpt lat="43.43284" lon="1.44722">
        <ele>239.35518</ele>
        <time>2018-11-17T08:44:56Z</time>
      </trkpt>
      <trkpt lat="43.43281" lon="1.44734">
        <ele>240.30713</ele>
        <time>2018-11-17T08:45:01Z</time>
      </trkpt>
      <trkpt lat="43.43281" lon="1.44737">
        <ele>240.46545</ele>
        <time>2018-11-17T08:45:02Z</time>
      </trkpt>
      <trkpt lat="43.4328" lon="1.4474">
        <ele>240.67137</ele>
        <time>2018-11-17T08:45:03Z</time>
      </trkpt>
      <trkpt lat="43.4328" lon="1.44742">
        <ele>240.79308</ele>
        <time>2018-11-17T08:45:04Z</time>
      </trkpt>
      <trkpt lat="43.4328" lon="1.44745">
        <ele>240.94911</ele>
        <time>2018-11-17T08:45:05Z</time>
      </trkpt>
      <trkpt lat="43.4328" lon="1.44746">
        <ele>241.07866</ele>
        <time>2018-11-17T08:45:06Z</time>
      </trkpt>
      <trkpt lat="43.43281" lon="1.44748">
        <ele>241.19875</ele>
        <time>2018-11-17T08:45:07Z</time>
      </trkpt>
      <trkpt lat="43.43281" lon="1.4475">
        <ele>241.34138</ele>
        <time>2018-11-17T08:45:08Z</time>
      </trkpt>
      <trkpt lat="43.43281" lon="1.44752">
        <ele>241.43388</ele>
        <time>2018-11-17T08:45:09Z</time>
      </trkpt>
      <trkpt lat="43.43281" lon="1.44753">
        <ele>241.51164</ele>
        <time>2018-11-17T08:45:10Z</time>
      </trkpt>
      <trkpt lat="43.43281" lon="1.44755">
        <ele>241.63808</ele>
        <time>2018-11-17T08:45:11Z</time>
      </trkpt>
      <trkpt lat="43.43281" lon="1.44757">
        <ele>241.72171</ele>
        <time>2018-11-17T08:45:12Z</time>
      </trkpt>
      <trkpt lat="43.43282" lon="1.44758">
        <ele>241.82367</ele>
        <time>2018-11-17T08:45:13Z</time>
      </trkpt>
      <trkpt lat="43.43282" lon="1.44759">
        <ele>241.92154</ele>
        <time>2018-11-17T08:45:14Z</time>
      </trkpt>
      <trkpt lat="43.43282" lon="1.4476">
        <ele>242.08112</ele>
        <time>2018-11-17T08:45:15Z</time>
      </trkpt>
      <trkpt lat="43.43283" lon="1.44761">
        <ele>242.17845</ele>
        <time>2018-11-17T08:45:16Z</time>
      </trkpt>
      <trkpt lat="43.43284" lon="1.44763">
        <ele>242.33719</ele>
        <time>2018-11-17T08:45:17Z</time>
      </trkpt>
      <trkpt lat="43.43284" lon="1.44764">
        <ele>242.50764</ele>
        <time>2018-11-17T08:45:18Z</time>
      </trkpt>
      <trkpt lat="43.43285" lon="1.44764">
        <ele>242.70091</ele>
        <time>2018-11-17T08:45:19Z</time>
      </trkpt>
      <trkpt lat="43.43285" lon="1.44767">
        <ele>242.90123</ele>
        <time>2018-11-17T08:45:20Z</time>
      </trkpt>
      <trkpt lat="43.43285" lon="1.44769">
        <ele>243.1272</ele>
        <time>2018-11-17T08:45:21Z</time>
      </trkpt>
      <trkpt lat="43.43285" lon="1.44771">
        <ele>243.25838</ele>
        <time>2018-11-17T08:45:22Z</time>
      </trkpt>
      <trkpt lat="43.43286" lon="1.44773">
        <ele>243.49275</ele>
        <time>2018-11-17T08:45:23Z</time>
      </trkpt>
      <trkpt lat="43.43286" lon="1.44774">
        <ele>243.66281</ele>
        <time>2018-11-17T08:45:24Z</time>
      </trkpt>
      <trkpt lat="43.43286" lon="1.44778">
        <ele>243.73625</ele>
        <time>2018-11-17T08:45:25Z</time>
      </trkpt>
      <trkpt lat="43.43287" lon="1.44781">
        <ele>243.81256</ele>
        <time>2018-11-17T08:45:26Z</time>
      </trkpt>
      <trkpt lat="43.43287" lon="1.44782">
        <ele>243.9339</ele>
        <time>2018-11-17T08:45:27Z</time>
      </trkpt>
      <trkpt lat="43.43287" lon="1.44784">
        <ele>244.0212</ele>
        <time>2018-11-17T08:45:28Z</time>
      </trkpt>
      <trkpt lat="43.43287" lon="1.44787">
        <ele>244.11395</ele>
        <time>2018-11-17T08:45:29Z</time>
      </trkpt>
      <trkpt lat="43.43288" lon="1.44788">
        <ele>244.18709</ele>
        <time>2018-11-17T08:45:30Z</time>
      </trkpt>
      <trkpt lat="43.43288" lon="1.4479">
        <ele>244.23137</ele>
        <time>2018-11-17T08:45:31Z</time>
      </trkpt>
      <trkpt lat="43.43288" lon="1.44792">
        <ele>244.29047</ele>
        <time>2018-11-17T08:45:32Z</time>
      </trkpt>
      <trkpt lat="43.43288" lon="1.44794">
        <ele>244.37717</ele>
        <time>2018-11-17T08:45:33Z</time>
      </trkpt>
      <trkpt lat="43.43288" lon="1.44797">
        <ele>244.50612</ele>
        <time>2018-11-17T08:45:34Z</time>
      </trkpt>
      <trkpt lat="43.43288" lon="1.44798">
        <ele>244.62215</ele>
        <time>2018-11-17T08:45:35Z</time>
      </trkpt>
      <trkpt lat="43.43288" lon="1.44799">
        <ele>244.74771</ele>
        <time>2018-11-17T08:45:36Z</time>
      </trkpt>
      <trkpt lat="43.43288" lon="1.44802">
        <ele>244.86311</ele>
        <time>2018-11-17T08:45:37Z</time>
      </trkpt>
      <trkpt lat="43.43288" lon="1.44803">
        <ele>245.14433</ele>
        <time>2018-11-17T08:45:39Z</time>
      </trkpt>
      <trkpt lat="43.43288" lon="1.44803">
        <ele>245.14433</ele>
        <time>2018-11-17T08:45:39Z</time>
      </trkpt>
      <trkpt lat="43.43285" lon="1.44816">
        <ele>246.07172</ele>
        <time>2018-11-17T08:45:46Z</time>
      </trkpt>
      <trkpt lat="43.43284" lon="1.44818">
        <ele>246.14888</ele>
        <time>2018-11-17T08:45:47Z</time>
      </trkpt>
      <trkpt lat="43.43283" lon="1.4482">
        <ele>246.24416</ele>
        <time>2018-11-17T08:45:48Z</time>
      </trkpt>
      <trkpt lat="43.43282" lon="1.44822">
        <ele>246.2996</ele>
        <time>2018-11-17T08:45:49Z</time>
      </trkpt>
      <trkpt lat="43.4328" lon="1.44824">
        <ele>246.29898</ele>
        <time>2018-11-17T08:45:50Z</time>
      </trkpt>
      <trkpt lat="43.43275" lon="1.44834">
        <ele>246.52437</ele>
        <time>2018-11-17T08:45:58Z</time>
      </trkpt>
      <trkpt lat="43.43274" lon="1.44836">
        <ele>246.56693</ele>
        <time>2018-11-17T08:45:59Z</time>
      </trkpt>
      <trkpt lat="43.43274" lon="1.44838">
        <ele>246.57932</ele>
        <time>2018-11-17T08:46:00Z</time>
      </trkpt>
      <trkpt lat="43.43273" lon="1.4484">
        <ele>246.58418</ele>
        <time>2018-11-17T08:46:01Z</time>
      </trkpt>
      <trkpt lat="43.43272" lon="1.4484">
        <ele>246.55875</ele>
        <time>2018-11-17T08:46:02Z</time>
      </trkpt>
      <trkpt lat="43.43266" lon="1.44858">
        <ele>246.84377</ele>
        <time>2018-11-17T08:46:11Z</time>
      </trkpt>
      <trkpt lat="43.43266" lon="1.44858">
        <ele>246.84377</ele>
        <time>2018-11-17T08:46:11Z</time>
      </trkpt>
      <trkpt lat="43.43261" lon="1.44871">
        <ele>247.4137</ele>
        <time>2018-11-17T08:46:19Z</time>
      </trkpt>
      <trkpt lat="43.43261" lon="1.44872">
        <ele>247.48083</ele>
        <time>2018-11-17T08:46:20Z</time>
      </trkpt>
      <trkpt lat="43.4326" lon="1.44874">
        <ele>247.52623</ele>
        <time>2018-11-17T08:46:21Z</time>
      </trkpt>
      <trkpt lat="43.43259" lon="1.44876">
        <ele>247.52147</ele>
        <time>2018-11-17T08:46:22Z</time>
      </trkpt>
      <trkpt lat="43.43254" lon="1.44889">
        <ele>247.7011</ele>
        <time>2018-11-17T08:46:30Z</time>
      </trkpt>
      <trkpt lat="43.43254" lon="1.44891">
        <ele>247.73064</ele>
        <time>2018-11-17T08:46:31Z</time>
      </trkpt>
      <trkpt lat="43.43253" lon="1.44895">
        <ele>247.81029</ele>
        <time>2018-11-17T08:46:33Z</time>
      </trkpt>
      <trkpt lat="43.43253" lon="1.44895">
        <ele>247.81029</ele>
        <time>2018-11-17T08:46:33Z</time>
      </trkpt>
      <trkpt lat="43.4325" lon="1.44911">
        <ele>247.62047</ele>
        <time>2018-11-17T08:46:40Z</time>
      </trkpt>
      <trkpt lat="43.4325" lon="1.44911">
        <ele>247.62047</ele>
        <time>2018-11-17T08:46:40Z</time>
      </trkpt>
      <trkpt lat="43.43251" lon="1.44926">
        <ele>247.63199</ele>
        <time>2018-11-17T08:46:43Z</time>
      </trkpt>
      <trkpt lat="43.43254" lon="1.4494">
        <ele>247.96986</ele>
        <time>2018-11-17T08:46:50Z</time>
      </trkpt>
      <trkpt lat="43.43254" lon="1.44942">
        <ele>248.20999</ele>
        <time>2018-11-17T08:46:51Z</time>
      </trkpt>
      <trkpt lat="43.43252" lon="1.44945">
        <ele>248.40424</ele>
        <time>2018-11-17T08:46:52Z</time>
      </trkpt>
      <trkpt lat="43.43252" lon="1.44947">
        <ele>248.48064</ele>
        <time>2018-11-17T08:46:53Z</time>
      </trkpt>
      <trkpt lat="43.43254" lon="1.44948">
        <ele>248.59549</ele>
        <time>2018-11-17T08:46:54Z</time>
      </trkpt>
      <trkpt lat="43.43255" lon="1.44951">
        <ele>248.74347</ele>
        <time>2018-11-17T08:46:56Z</time>
      </trkpt>
      <trkpt lat="43.43255" lon="1.44951">
        <ele>248.74347</ele>
        <time>2018-11-17T08:46:56Z</time>
      </trkpt>
      <trkpt lat="43.43254" lon="1.44964">
        <ele>249.42656</ele>
        <time>2018-11-17T08:47:03Z</time>
      </trkpt>
      <trkpt lat="43.43254" lon="1.44965">
        <ele>249.62994</ele>
        <time>2018-11-17T08:47:04Z</time>
      </trkpt>
      <trkpt lat="43.43254" lon="1.44966">
        <ele>249.7915</ele>
        <time>2018-11-17T08:47:05Z</time>
      </trkpt>
      <trkpt lat="43.43254" lon="1.44967">
        <ele>249.94156</ele>
        <time>2018-11-17T08:47:06Z</time>
      </trkpt>
      <trkpt lat="43.43254" lon="1.44969">
        <ele>250.1246</ele>
        <time>2018-11-17T08:47:07Z</time>
      </trkpt>
      <trkpt lat="43.43254" lon="1.44971">
        <ele>250.32854</ele>
        <time>2018-11-17T08:47:08Z</time>
      </trkpt>
      <trkpt lat="43.43255" lon="1.44972">
        <ele>250.53755</ele>
        <time>2018-11-17T08:47:09Z</time>
      </trkpt>
      <trkpt lat="43.43254" lon="1.44974">
        <ele>250.65445</ele>
        <time>2018-11-17T08:47:10Z</time>
      </trkpt>
      <trkpt lat="43.43255" lon="1.44975">
        <ele>250.75291</ele>
        <time>2018-11-17T08:47:11Z</time>
      </trkpt>
      <trkpt lat="43.43255" lon="1.44977">
        <ele>250.91411</ele>
        <time>2018-11-17T08:47:12Z</time>
      </trkpt>
      <trkpt lat="43.43255" lon="1.44978">
        <ele>251.04205</ele>
        <time>2018-11-17T08:47:13Z</time>
      </trkpt>
      <trkpt lat="43.43255" lon="1.44981">
        <ele>251.18538</ele>
        <time>2018-11-17T08:47:14Z</time>
      </trkpt>
      <trkpt lat="43.43255" lon="1.44983">
        <ele>251.25185</ele>
        <time>2018-11-17T08:47:15Z</time>
      </trkpt>
      <trkpt lat="43.43255" lon="1.44986">
        <ele>251.42374</ele>
        <time>2018-11-17T08:47:17Z</time>
      </trkpt>
      <trkpt lat="43.43255" lon="1.44986">
        <ele>251.42374</ele>
        <time>2018-11-17T08:47:17Z</time>
      </trkpt>
      <trkpt lat="43.43254" lon="1.45">
        <ele>251.628</ele>
        <time>2018-11-17T08:47:25Z</time>
      </trkpt>
      <trkpt lat="43.43254" lon="1.45002">
        <ele>251.57936</ele>
        <time>2018-11-17T08:47:26Z</time>
      </trkpt>
      <trkpt lat="43.43253" lon="1.45016">
        <ele>251.2135</ele>
        <time>2018-11-17T08:47:31Z</time>
      </trkpt>
      <trkpt lat="43.43253" lon="1.4503">
        <ele>250.66008</ele>
        <time>2018-11-17T08:47:38Z</time>
      </trkpt>
      <trkpt lat="43.43254" lon="1.45044">
        <ele>250.7314</ele>
        <time>2018-11-17T08:47:43Z</time>
      </trkpt>
      <trkpt lat="43.43254" lon="1.45057">
        <ele>250.73845</ele>
        <time>2018-11-17T08:47:51Z</time>
      </trkpt>
      <trkpt lat="43.43257" lon="1.4507">
        <ele>250.26794</ele>
        <time>2018-11-17T08:47:59Z</time>
      </trkpt>
      <trkpt lat="43.4326" lon="1.45083">
        <ele>250.05675</ele>
        <time>2018-11-17T08:48:06Z</time>
      </trkpt>
      <trkpt lat="43.4326" lon="1.45097">
        <ele>250.2977</ele>
        <time>2018-11-17T08:48:13Z</time>
      </trkpt>
      <trkpt lat="43.43263" lon="1.45109">
        <ele>250.94308</ele>
        <time>2018-11-17T08:48:21Z</time>
      </trkpt>
      <trkpt lat="43.43268" lon="1.45122">
        <ele>251.44133</ele>
        <time>2018-11-17T08:48:28Z</time>
      </trkpt>
      <trkpt lat="43.4327" lon="1.45134">
        <ele>251.35156</ele>
        <time>2018-11-17T08:48:35Z</time>
      </trkpt>
      <trkpt lat="43.43272" lon="1.45147">
        <ele>251.18686</ele>
        <time>2018-11-17T08:48:43Z</time>
      </trkpt>
      <trkpt lat="43.43274" lon="1.45161">
        <ele>250.2047</ele>
        <time>2018-11-17T08:48:51Z</time>
      </trkpt>
      <trkpt lat="43.43276" lon="1.45173">
        <ele>249.48396</ele>
        <time>2018-11-17T08:48:58Z</time>
      </trkpt>
      <trkpt lat="43.43277" lon="1.45186">
        <ele>248.50104</ele>
        <time>2018-11-17T08:49:06Z</time>
      </trkpt>
      <trkpt lat="43.43279" lon="1.45199">
        <ele>247.32922</ele>
        <time>2018-11-17T08:49:13Z</time>
      </trkpt>
      <trkpt lat="43.43282" lon="1.45212">
        <ele>246.08122</ele>
        <time>2018-11-17T08:49:19Z</time>
      </trkpt>
      <trkpt lat="43.43282" lon="1.45225">
        <ele>246.29245</ele>
        <time>2018-11-17T08:49:25Z</time>
      </trkpt>
      <trkpt lat="43.43284" lon="1.45239">
        <ele>247.19272</ele>
        <time>2018-11-17T08:49:29Z</time>
      </trkpt>
      <trkpt lat="43.43284" lon="1.45253">
        <ele>250.33018</ele>
        <time>2018-11-17T08:49:41Z</time>
      </trkpt>
      <trkpt lat="43.43282" lon="1.45266">
        <ele>251.43474</ele>
        <time>2018-11-17T08:49:45Z</time>
      </trkpt>
      <trkpt lat="43.43285" lon="1.45278">
        <ele>252.39014</ele>
        <time>2018-11-17T08:49:51Z</time>
      </trkpt>
      <trkpt lat="43.43285" lon="1.4528">
        <ele>252.55193</ele>
        <time>2018-11-17T08:49:52Z</time>
      </trkpt>
      <trkpt lat="43.43286" lon="1.45286">
        <ele>252.78766</ele>
        <time>2018-11-17T08:49:53Z</time>
      </trkpt>
      <trkpt lat="43.43286" lon="1.45292">
        <ele>253.35745</ele>
        <time>2018-11-17T08:49:55Z</time>
      </trkpt>
      <trkpt lat="43.43286" lon="1.45292">
        <ele>253.35745</ele>
        <time>2018-11-17T08:49:55Z</time>
      </trkpt>
      <trkpt lat="43.43286" lon="1.45305">
        <ele>255.22614</ele>
        <time>2018-11-17T08:50:04Z</time>
      </trkpt>
      <trkpt lat="43.43286" lon="1.45305">
        <ele>255.22614</ele>
        <time>2018-11-17T08:50:04Z</time>
      </trkpt>
      <trkpt lat="43.43284" lon="1.45318">
        <ele>256.4035</ele>
        <time>2018-11-17T08:50:15Z</time>
      </trkpt>
      <trkpt lat="43.43284" lon="1.45318">
        <ele>256.45892</ele>
        <time>2018-11-17T08:50:16Z</time>
      </trkpt>
      <trkpt lat="43.43284" lon="1.4532">
        <ele>256.53482</ele>
        <time>2018-11-17T08:50:17Z</time>
      </trkpt>
      <trkpt lat="43.43285" lon="1.45322">
        <ele>256.61908</ele>
        <time>2018-11-17T08:50:18Z</time>
      </trkpt>
      <trkpt lat="43.43285" lon="1.45324">
        <ele>256.64063</ele>
        <time>2018-11-17T08:50:19Z</time>
      </trkpt>
      <trkpt lat="43.43285" lon="1.45325">
        <ele>256.6717</ele>
        <time>2018-11-17T08:50:20Z</time>
      </trkpt>
      <trkpt lat="43.43285" lon="1.4533">
        <ele>256.58447</ele>
        <time>2018-11-17T08:50:22Z</time>
      </trkpt>
      <trkpt lat="43.43286" lon="1.45346">
        <ele>257.3209</ele>
        <time>2018-11-17T08:50:28Z</time>
      </trkpt>
      <trkpt lat="43.43287" lon="1.45347">
        <ele>257.42734</ele>
        <time>2018-11-17T08:50:29Z</time>
      </trkpt>
      <trkpt lat="43.43288" lon="1.45349">
        <ele>257.47116</ele>
        <time>2018-11-17T08:50:30Z</time>
      </trkpt>
      <trkpt lat="43.43291" lon="1.45351">
        <ele>257.47296</ele>
        <time>2018-11-17T08:50:32Z</time>
      </trkpt>
      <trkpt lat="43.43291" lon="1.45351">
        <ele>257.47296</ele>
        <time>2018-11-17T08:50:32Z</time>
      </trkpt>
      <trkpt lat="43.433" lon="1.45357">
        <ele>257.58472</ele>
        <time>2018-11-17T08:50:40Z</time>
      </trkpt>
      <trkpt lat="43.43301" lon="1.45357">
        <ele>257.63065</ele>
        <time>2018-11-17T08:50:41Z</time>
      </trkpt>
      <trkpt lat="43.43311" lon="1.45359">
        <ele>257.59692</ele>
        <time>2018-11-17T08:50:50Z</time>
      </trkpt>
      <trkpt lat="43.43312" lon="1.45359">
        <ele>257.3852</ele>
        <time>2018-11-17T08:50:51Z</time>
      </trkpt>
      <trkpt lat="43.43321" lon="1.45359">
        <ele>256.4279</ele>
        <time>2018-11-17T08:51:00Z</time>
      </trkpt>
      <trkpt lat="43.43332" lon="1.45363">
        <ele>256.3574</ele>
        <time>2018-11-17T08:51:04Z</time>
      </trkpt>
      <trkpt lat="43.43343" lon="1.45363">
        <ele>256.55148</ele>
        <time>2018-11-17T08:51:09Z</time>
      </trkpt>
      <trkpt lat="43.43353" lon="1.45366">
        <ele>257.2362</ele>
        <time>2018-11-17T08:51:18Z</time>
      </trkpt>
      <trkpt lat="43.43362" lon="1.45368">
        <ele>256.70868</ele>
        <time>2018-11-17T08:51:27Z</time>
      </trkpt>
      <trkpt lat="43.43368" lon="1.45379">
        <ele>255.59154</ele>
        <time>2018-11-17T08:51:41Z</time>
      </trkpt>
      <trkpt lat="43.43379" lon="1.4538">
        <ele>255.17072</ele>
        <time>2018-11-17T08:51:50Z</time>
      </trkpt>
      <trkpt lat="43.43389" lon="1.4538">
        <ele>254.42001</ele>
        <time>2018-11-17T08:51:58Z</time>
      </trkpt>
      <trkpt lat="43.43399" lon="1.45379">
        <ele>253.78284</ele>
        <time>2018-11-17T08:52:07Z</time>
      </trkpt>
      <trkpt lat="43.43411" lon="1.4538">
        <ele>253.36382</ele>
        <time>2018-11-17T08:52:16Z</time>
      </trkpt>
      <trkpt lat="43.43421" lon="1.45381">
        <ele>253.38672</ele>
        <time>2018-11-17T08:52:26Z</time>
      </trkpt>
      <trkpt lat="43.4343" lon="1.45383">
        <ele>253.74084</ele>
        <time>2018-11-17T08:52:34Z</time>
      </trkpt>
      <trkpt lat="43.4344" lon="1.45386">
        <ele>253.63467</ele>
        <time>2018-11-17T08:52:43Z</time>
      </trkpt>
      <trkpt lat="43.43449" lon="1.45386">
        <ele>253.46446</ele>
        <time>2018-11-17T08:52:51Z</time>
      </trkpt>
      <trkpt lat="43.43458" lon="1.45387">
        <ele>253.93681</ele>
        <time>2018-11-17T08:52:57Z</time>
      </trkpt>
      <trkpt lat="43.43467" lon="1.45389">
        <ele>254.72878</ele>
        <time>2018-11-17T08:53:03Z</time>
      </trkpt>
      <trkpt lat="43.43478" lon="1.45392">
        <ele>255.71243</ele>
        <time>2018-11-17T08:53:11Z</time>
      </trkpt>
      <trkpt lat="43.43484" lon="1.45389">
        <ele>257.40793</ele>
        <time>2018-11-17T08:53:24Z</time>
      </trkpt>
      <trkpt lat="43.43484" lon="1.45389">
        <ele>257.40793</ele>
        <time>2018-11-17T08:53:24Z</time>
      </trkpt>
      <trkpt lat="43.43504" lon="1.45385">
        <ele>267.2582</ele>
        <time>2018-11-17T08:55:58Z</time>
      </trkpt>
      <trkpt lat="43.43505" lon="1.45385">
        <ele>267.21912</ele>
        <time>2018-11-17T08:55:59Z</time>
      </trkpt>
      <trkpt lat="43.43513" lon="1.45393">
        <ele>266.24088</ele>
        <time>2018-11-17T08:56:08Z</time>
      </trkpt>
      <trkpt lat="43.43521" lon="1.45399">
        <ele>265.39926</ele>
        <time>2018-11-17T08:56:18Z</time>
      </trkpt>
      <trkpt lat="43.43526" lon="1.45409">
        <ele>264.58386</ele>
        <time>2018-11-17T08:56:25Z</time>
      </trkpt>
      <trkpt lat="43.43535" lon="1.45417">
        <ele>263.99765</ele>
        <time>2018-11-17T08:56:35Z</time>
      </trkpt>
      <trkpt lat="43.43544" lon="1.45422">
        <ele>263.8792</ele>
        <time>2018-11-17T08:56:42Z</time>
      </trkpt>
      <trkpt lat="43.43553" lon="1.45425">
        <ele>264.30005</ele>
        <time>2018-11-17T08:56:50Z</time>
      </trkpt>
      <trkpt lat="43.43562" lon="1.4543">
        <ele>264.9272</ele>
        <time>2018-11-17T08:56:58Z</time>
      </trkpt>
      <trkpt lat="43.43572" lon="1.45433">
        <ele>264.55215</ele>
        <time>2018-11-17T08:57:06Z</time>
      </trkpt>
      <trkpt lat="43.43581" lon="1.45436">
        <ele>264.8115</ele>
        <time>2018-11-17T08:57:14Z</time>
      </trkpt>
      <trkpt lat="43.43589" lon="1.4544">
        <ele>265.2756</ele>
        <time>2018-11-17T08:57:21Z</time>
      </trkpt>
      <trkpt lat="43.43599" lon="1.45444">
        <ele>265.70703</ele>
        <time>2018-11-17T08:57:27Z</time>
      </trkpt>
      <trkpt lat="43.43609" lon="1.45446">
        <ele>266.72772</ele>
        <time>2018-11-17T08:57:33Z</time>
      </trkpt>
      <trkpt lat="43.43618" lon="1.45451">
        <ele>267.95795</ele>
        <time>2018-11-17T08:57:41Z</time>
      </trkpt>
      <trkpt lat="43.4362" lon="1.45451">
        <ele>268.2207</ele>
        <time>2018-11-17T08:57:42Z</time>
      </trkpt>
      <trkpt lat="43.4362" lon="1.45451">
        <ele>268.42462</ele>
        <time>2018-11-17T08:57:43Z</time>
      </trkpt>
      <trkpt lat="43.43621" lon="1.45452">
        <ele>268.63977</ele>
        <time>2018-11-17T08:57:44Z</time>
      </trkpt>
      <trkpt lat="43.43623" lon="1.45452">
        <ele>268.8025</ele>
        <time>2018-11-17T08:57:45Z</time>
      </trkpt>
      <trkpt lat="43.43624" lon="1.45453">
        <ele>268.95895</ele>
        <time>2018-11-17T08:57:46Z</time>
      </trkpt>
      <trkpt lat="43.43625" lon="1.45453">
        <ele>269.057</ele>
        <time>2018-11-17T08:57:47Z</time>
      </trkpt>
      <trkpt lat="43.43626" lon="1.45454">
        <ele>269.1425</ele>
        <time>2018-11-17T08:57:48Z</time>
      </trkpt>
      <trkpt lat="43.43628" lon="1.45455">
        <ele>269.20493</ele>
        <time>2018-11-17T08:57:49Z</time>
      </trkpt>
      <trkpt lat="43.43629" lon="1.45456">
        <ele>269.30392</ele>
        <time>2018-11-17T08:57:50Z</time>
      </trkpt>
      <trkpt lat="43.4363" lon="1.45456">
        <ele>269.4345</ele>
        <time>2018-11-17T08:57:51Z</time>
      </trkpt>
      <trkpt lat="43.43631" lon="1.45456">
        <ele>269.5601</ele>
        <time>2018-11-17T08:57:52Z</time>
      </trkpt>
      <trkpt lat="43.43632" lon="1.45456">
        <ele>269.63635</ele>
        <time>2018-11-17T08:57:53Z</time>
      </trkpt>
      <trkpt lat="43.43633" lon="1.45457">
        <ele>269.81778</ele>
        <time>2018-11-17T08:57:54Z</time>
      </trkpt>
      <trkpt lat="43.43634" lon="1.45458">
        <ele>269.97876</ele>
        <time>2018-11-17T08:57:55Z</time>
      </trkpt>
      <trkpt lat="43.43635" lon="1.45458">
        <ele>270.2341</ele>
        <time>2018-11-17T08:57:56Z</time>
      </trkpt>
      <trkpt lat="43.43636" lon="1.45459">
        <ele>270.4198</ele>
        <time>2018-11-17T08:57:57Z</time>
      </trkpt>
      <trkpt lat="43.43638" lon="1.45461">
        <ele>270.5612</ele>
        <time>2018-11-17T08:57:58Z</time>
      </trkpt>
      <trkpt lat="43.43639" lon="1.45461">
        <ele>270.71384</ele>
        <time>2018-11-17T08:57:59Z</time>
      </trkpt>
      <trkpt lat="43.43641" lon="1.45463">
        <ele>270.81683</ele>
        <time>2018-11-17T08:58:00Z</time>
      </trkpt>
      <trkpt lat="43.43642" lon="1.45463">
        <ele>270.97714</ele>
        <time>2018-11-17T08:58:01Z</time>
      </trkpt>
      <trkpt lat="43.43644" lon="1.45464">
        <ele>271.10837</ele>
        <time>2018-11-17T08:58:02Z</time>
      </trkpt>
      <trkpt lat="43.43645" lon="1.45466">
        <ele>271.29263</ele>
        <time>2018-11-17T08:58:03Z</time>
      </trkpt>
      <trkpt lat="43.43646" lon="1.45466">
        <ele>271.5201</ele>
        <time>2018-11-17T08:58:04Z</time>
      </trkpt>
      <trkpt lat="43.43647" lon="1.45467">
        <ele>271.68262</ele>
        <time>2018-11-17T08:58:05Z</time>
      </trkpt>
      <trkpt lat="43.43647" lon="1.45468">
        <ele>271.90778</ele>
        <time>2018-11-17T08:58:06Z</time>
      </trkpt>
      <trkpt lat="43.43649" lon="1.45468">
        <ele>272.0936</ele>
        <time>2018-11-17T08:58:07Z</time>
      </trkpt>
      <trkpt lat="43.4365" lon="1.45469">
        <ele>272.1876</ele>
        <time>2018-11-17T08:58:08Z</time>
      </trkpt>
      <trkpt lat="43.43652" lon="1.4547">
        <ele>272.36026</ele>
        <time>2018-11-17T08:58:09Z</time>
      </trkpt>
      <trkpt lat="43.43653" lon="1.45471">
        <ele>272.50604</ele>
        <time>2018-11-17T08:58:10Z</time>
      </trkpt>
      <trkpt lat="43.43655" lon="1.45472">
        <ele>272.58792</ele>
        <time>2018-11-17T08:58:11Z</time>
      </trkpt>
      <trkpt lat="43.43656" lon="1.45472">
        <ele>272.67914</ele>
        <time>2018-11-17T08:58:12Z</time>
      </trkpt>
      <trkpt lat="43.43657" lon="1.45474">
        <ele>272.76935</ele>
        <time>2018-11-17T08:58:13Z</time>
      </trkpt>
      <trkpt lat="43.43657" lon="1.45474">
        <ele>272.82837</ele>
        <time>2018-11-17T08:58:14Z</time>
      </trkpt>
      <trkpt lat="43.43659" lon="1.45475">
        <ele>272.8963</ele>
        <time>2018-11-17T08:58:15Z</time>
      </trkpt>
      <trkpt lat="43.4366" lon="1.45477">
        <ele>273.01453</ele>
        <time>2018-11-17T08:58:16Z</time>
      </trkpt>
      <trkpt lat="43.43662" lon="1.45478">
        <ele>273.145</ele>
        <time>2018-11-17T08:58:17Z</time>
      </trkpt>
      <trkpt lat="43.43663" lon="1.45479">
        <ele>273.261</ele>
        <time>2018-11-17T08:58:18Z</time>
      </trkpt>
      <trkpt lat="43.43665" lon="1.45479">
        <ele>273.31226</ele>
        <time>2018-11-17T08:58:19Z</time>
      </trkpt>
      <trkpt lat="43.43666" lon="1.4548">
        <ele>273.37225</ele>
        <time>2018-11-17T08:58:20Z</time>
      </trkpt>
      <trkpt lat="43.43667" lon="1.4548">
        <ele>273.43707</ele>
        <time>2018-11-17T08:58:21Z</time>
      </trkpt>
      <trkpt lat="43.43668" lon="1.4548">
        <ele>273.48447</ele>
        <time>2018-11-17T08:58:22Z</time>
      </trkpt>
      <trkpt lat="43.43668" lon="1.45481">
        <ele>273.54367</ele>
        <time>2018-11-17T08:58:23Z</time>
      </trkpt>
      <trkpt lat="43.4367" lon="1.45482">
        <ele>273.64832</ele>
        <time>2018-11-17T08:58:24Z</time>
      </trkpt>
      <trkpt lat="43.43671" lon="1.45483">
        <ele>273.72375</ele>
        <time>2018-11-17T08:58:25Z</time>
      </trkpt>
      <trkpt lat="43.43673" lon="1.45484">
        <ele>273.82227</ele>
        <time>2018-11-17T08:58:26Z</time>
      </trkpt>
      <trkpt lat="43.43674" lon="1.45484">
        <ele>273.89648</ele>
        <time>2018-11-17T08:58:27Z</time>
      </trkpt>
      <trkpt lat="43.43675" lon="1.45485">
        <ele>273.9192</ele>
        <time>2018-11-17T08:58:28Z</time>
      </trkpt>
      <trkpt lat="43.43676" lon="1.45486">
        <ele>273.87564</ele>
        <time>2018-11-17T08:58:29Z</time>
      </trkpt>
      <trkpt lat="43.43684" lon="1.45492">
        <ele>273.80978</ele>
        <time>2018-11-17T08:58:37Z</time>
      </trkpt>
      <trkpt lat="43.43693" lon="1.45496">
        <ele>273.7896</ele>
        <time>2018-11-17T08:58:43Z</time>
      </trkpt>
      <trkpt lat="43.43703" lon="1.455">
        <ele>273.39236</ele>
        <time>2018-11-17T08:58:50Z</time>
      </trkpt>
      <trkpt lat="43.43712" lon="1.45505">
        <ele>273.16092</ele>
        <time>2018-11-17T08:58:56Z</time>
      </trkpt>
      <trkpt lat="43.43721" lon="1.4551">
        <ele>272.6371</ele>
        <time>2018-11-17T08:59:05Z</time>
      </trkpt>
      <trkpt lat="43.43731" lon="1.45514">
        <ele>271.85944</ele>
        <time>2018-11-17T08:59:11Z</time>
      </trkpt>
      <trkpt lat="43.43739" lon="1.45518">
        <ele>271.45145</ele>
        <time>2018-11-17T08:59:17Z</time>
      </trkpt>
      <trkpt lat="43.43748" lon="1.45523">
        <ele>271.2173</ele>
        <time>2018-11-17T08:59:22Z</time>
      </trkpt>
      <trkpt lat="43.43757" lon="1.45526">
        <ele>270.3923</ele>
        <time>2018-11-17T08:59:29Z</time>
      </trkpt>
      <trkpt lat="43.43765" lon="1.45533">
        <ele>270.06384</ele>
        <time>2018-11-17T08:59:35Z</time>
      </trkpt>
      <trkpt lat="43.43773" lon="1.45539">
        <ele>269.41055</ele>
        <time>2018-11-17T08:59:43Z</time>
      </trkpt>
      <trkpt lat="43.43781" lon="1.45543">
        <ele>268.656</ele>
        <time>2018-11-17T08:59:55Z</time>
      </trkpt>
      <trkpt lat="43.43781" lon="1.45543">
        <ele>268.656</ele>
        <time>2018-11-17T08:59:55Z</time>
      </trkpt>
      <trkpt lat="43.4378" lon="1.45557">
        <ele>268.28787</ele>
        <time>2018-11-17T09:00:53Z</time>
      </trkpt>
      <trkpt lat="43.43774" lon="1.45569">
        <ele>268.57025</ele>
        <time>2018-11-17T09:01:02Z</time>
      </trkpt>
      <trkpt lat="43.43771" lon="1.45576">
        <ele>269.2106</ele>
        <time>2018-11-17T09:01:10Z</time>
      </trkpt>
      <trkpt lat="43.43771" lon="1.45576">
        <ele>269.2106</ele>
        <time>2018-11-17T09:01:10Z</time>
      </trkpt>
      <trkpt lat="43.43763" lon="1.45584">
        <ele>269.9208</ele>
        <time>2018-11-17T09:01:26Z</time>
      </trkpt>
      <trkpt lat="43.43758" lon="1.45594">
        <ele>270.5974</ele>
        <time>2018-11-17T09:01:32Z</time>
      </trkpt>
      <trkpt lat="43.43752" lon="1.45605">
        <ele>271.0093</ele>
        <time>2018-11-17T09:01:38Z</time>
      </trkpt>
      <trkpt lat="43.43747" lon="1.45616">
        <ele>271.57477</ele>
        <time>2018-11-17T09:01:45Z</time>
      </trkpt>
      <trkpt lat="43.43741" lon="1.45628">
        <ele>271.9986</ele>
        <time>2018-11-17T09:01:52Z</time>
      </trkpt>
      <trkpt lat="43.43735" lon="1.45639">
        <ele>272.76306</ele>
        <time>2018-11-17T09:01:59Z</time>
      </trkpt>
      <trkpt lat="43.4373" lon="1.45653">
        <ele>273.37814</ele>
        <time>2018-11-17T09:02:05Z</time>
      </trkpt>
      <trkpt lat="43.43728" lon="1.45666">
        <ele>274.60693</ele>
        <time>2018-11-17T09:02:13Z</time>
      </trkpt>
      <trkpt lat="43.43727" lon="1.45667">
        <ele>274.7486</ele>
        <time>2018-11-17T09:02:14Z</time>
      </trkpt>
      <trkpt lat="43.43726" lon="1.45667">
        <ele>274.89032</ele>
        <time>2018-11-17T09:02:15Z</time>
      </trkpt>
      <trkpt lat="43.43726" lon="1.45669">
        <ele>274.97287</ele>
        <time>2018-11-17T09:02:16Z</time>
      </trkpt>
      <trkpt lat="43.43725" lon="1.4567">
        <ele>275.12308</ele>
        <time>2018-11-17T09:02:17Z</time>
      </trkpt>
      <trkpt lat="43.43723" lon="1.45672">
        <ele>275.3318</ele>
        <time>2018-11-17T09:02:18Z</time>
      </trkpt>
      <trkpt lat="43.43722" lon="1.45673">
        <ele>275.46463</ele>
        <time>2018-11-17T09:02:19Z</time>
      </trkpt>
      <trkpt lat="43.43721" lon="1.45674">
        <ele>275.62082</ele>
        <time>2018-11-17T09:02:20Z</time>
      </trkpt>
      <trkpt lat="43.43721" lon="1.45675">
        <ele>275.75906</ele>
        <time>2018-11-17T09:02:21Z</time>
      </trkpt>
      <trkpt lat="43.43721" lon="1.45677">
        <ele>275.8448</ele>
        <time>2018-11-17T09:02:22Z</time>
      </trkpt>
      <trkpt lat="43.4372" lon="1.45679">
        <ele>275.96826</ele>
        <time>2018-11-17T09:02:23Z</time>
      </trkpt>
      <trkpt lat="43.4372" lon="1.45681">
        <ele>276.06525</ele>
        <time>2018-11-17T09:02:24Z</time>
      </trkpt>
      <trkpt lat="43.43719" lon="1.45682">
        <ele>276.17343</ele>
        <time>2018-11-17T09:02:25Z</time>
      </trkpt>
      <trkpt lat="43.43719" lon="1.45682">
        <ele>276.2523</ele>
        <time>2018-11-17T09:02:26Z</time>
      </trkpt>
      <trkpt lat="43.43718" lon="1.45683">
        <ele>276.31976</ele>
        <time>2018-11-17T09:02:27Z</time>
      </trkpt>
      <trkpt lat="43.43718" lon="1.45684">
        <ele>276.37558</ele>
        <time>2018-11-17T09:02:28Z</time>
      </trkpt>
      <trkpt lat="43.43717" lon="1.45687">
        <ele>276.4893</ele>
        <time>2018-11-17T09:02:29Z</time>
      </trkpt>
      <trkpt lat="43.43716" lon="1.45688">
        <ele>276.6141</ele>
        <time>2018-11-17T09:02:30Z</time>
      </trkpt>
      <trkpt lat="43.43716" lon="1.4569">
        <ele>276.7955</ele>
        <time>2018-11-17T09:02:31Z</time>
      </trkpt>
      <trkpt lat="43.43716" lon="1.45691">
        <ele>276.98083</ele>
        <time>2018-11-17T09:02:32Z</time>
      </trkpt>
      <trkpt lat="43.43715" lon="1.45694">
        <ele>277.1511</ele>
        <time>2018-11-17T09:02:33Z</time>
      </trkpt>
      <trkpt lat="43.43714" lon="1.45697">
        <ele>277.36273</ele>
        <time>2018-11-17T09:02:34Z</time>
      </trkpt>
      <trkpt lat="43.43713" lon="1.45701">
        <ele>277.5119</ele>
        <time>2018-11-17T09:02:35Z</time>
      </trkpt>
      <trkpt lat="43.43712" lon="1.45706">
        <ele>278.3755</ele>
        <time>2018-11-17T09:02:36Z</time>
      </trkpt>
      <trkpt lat="43.4371" lon="1.45713">
        <ele>278.8164</ele>
        <time>2018-11-17T09:02:37Z</time>
      </trkpt>
      <trkpt lat="43.43709" lon="1.45719">
        <ele>279.34152</ele>
        <time>2018-11-17T09:02:38Z</time>
      </trkpt>
      <trkpt lat="43.4371" lon="1.4572">
        <ele>279.32117</ele>
        <time>2018-11-17T09:02:39Z</time>
      </trkpt>
      <trkpt lat="43.43707" lon="1.45732">
        <ele>280.26443</ele>
        <time>2018-11-17T09:02:51Z</time>
      </trkpt>
      <trkpt lat="43.43706" lon="1.45734">
        <ele>280.3473</ele>
        <time>2018-11-17T09:02:52Z</time>
      </trkpt>
      <trkpt lat="43.43705" lon="1.45736">
        <ele>280.4745</ele>
        <time>2018-11-17T09:02:53Z</time>
      </trkpt>
      <trkpt lat="43.43705" lon="1.45737">
        <ele>280.56372</ele>
        <time>2018-11-17T09:02:54Z</time>
      </trkpt>
      <trkpt lat="43.43705" lon="1.45738">
        <ele>280.69238</ele>
        <time>2018-11-17T09:02:55Z</time>
      </trkpt>
      <trkpt lat="43.43705" lon="1.4574">
        <ele>280.7791</ele>
        <time>2018-11-17T09:02:56Z</time>
      </trkpt>
      <trkpt lat="43.43705" lon="1.45741">
        <ele>280.88818</ele>
        <time>2018-11-17T09:02:57Z</time>
      </trkpt>
      <trkpt lat="43.43705" lon="1.45743">
        <ele>280.9506</ele>
        <time>2018-11-17T09:02:59Z</time>
      </trkpt>
      <trkpt lat="43.43704" lon="1.45746">
        <ele>281.03723</ele>
        <time>2018-11-17T09:02:59Z</time>
      </trkpt>
      <trkpt lat="43.43704" lon="1.45748">
        <ele>281.16495</ele>
        <time>2018-11-17T09:03:01Z</time>
      </trkpt>
      <trkpt lat="43.43704" lon="1.45749">
        <ele>281.2828</ele>
        <time>2018-11-17T09:03:02Z</time>
      </trkpt>
      <trkpt lat="43.43703" lon="1.45752">
        <ele>281.41534</ele>
        <time>2018-11-17T09:03:03Z</time>
      </trkpt>
      <trkpt lat="43.43702" lon="1.45754">
        <ele>281.46384</ele>
        <time>2018-11-17T09:03:04Z</time>
      </trkpt>
      <trkpt lat="43.43701" lon="1.45756">
        <ele>281.54688</ele>
        <time>2018-11-17T09:03:05Z</time>
      </trkpt>
      <trkpt lat="43.43701" lon="1.45757">
        <ele>281.6877</ele>
        <time>2018-11-17T09:03:06Z</time>
      </trkpt>
      <trkpt lat="43.43701" lon="1.45759">
        <ele>281.82364</ele>
        <time>2018-11-17T09:03:07Z</time>
      </trkpt>
      <trkpt lat="43.43701" lon="1.45761">
        <ele>281.95602</ele>
        <time>2018-11-17T09:03:08Z</time>
      </trkpt>
      <trkpt lat="43.437" lon="1.45764">
        <ele>282.03592</ele>
        <time>2018-11-17T09:03:09Z</time>
      </trkpt>
      <trkpt lat="43.437" lon="1.45766">
        <ele>282.11298</ele>
        <time>2018-11-17T09:03:10Z</time>
      </trkpt>
      <trkpt lat="43.437" lon="1.45769">
        <ele>282.20764</ele>
        <time>2018-11-17T09:03:11Z</time>
      </trkpt>
      <trkpt lat="43.43699" lon="1.45771">
        <ele>282.28247</ele>
        <time>2018-11-17T09:03:12Z</time>
      </trkpt>
      <trkpt lat="43.43698" lon="1.45773">
        <ele>282.3651</ele>
        <time>2018-11-17T09:03:13Z</time>
      </trkpt>
      <trkpt lat="43.43698" lon="1.45776">
        <ele>282.4293</ele>
        <time>2018-11-17T09:03:15Z</time>
      </trkpt>
      <trkpt lat="43.43698" lon="1.45776">
        <ele>282.4293</ele>
        <time>2018-11-17T09:03:15Z</time>
      </trkpt>
      <trkpt lat="43.43694" lon="1.45789">
        <ele>282.87433</ele>
        <time>2018-11-17T09:03:21Z</time>
      </trkpt>
      <trkpt lat="43.43693" lon="1.45791">
        <ele>282.8897</ele>
        <time>2018-11-17T09:03:22Z</time>
      </trkpt>
      <trkpt lat="43.43693" lon="1.45792">
        <ele>282.92157</ele>
        <time>2018-11-17T09:03:23Z</time>
      </trkpt>
      <trkpt lat="43.43692" lon="1.45794">
        <ele>282.99197</ele>
        <time>2018-11-17T09:03:24Z</time>
      </trkpt>
      <trkpt lat="43.43691" lon="1.45795">
        <ele>283.0197</ele>
        <time>2018-11-17T09:03:25Z</time>
      </trkpt>
      <trkpt lat="43.43691" lon="1.45796">
        <ele>283.06735</ele>
        <time>2018-11-17T09:03:26Z</time>
      </trkpt>
      <trkpt lat="43.4369" lon="1.45798">
        <ele>283.15414</ele>
        <time>2018-11-17T09:03:27Z</time>
      </trkpt>
      <trkpt lat="43.4369" lon="1.45799">
        <ele>283.22498</ele>
        <time>2018-11-17T09:03:28Z</time>
      </trkpt>
      <trkpt lat="43.43689" lon="1.45801">
        <ele>283.3213</ele>
        <time>2018-11-17T09:03:29Z</time>
      </trkpt>
      <trkpt lat="43.43689" lon="1.45802">
        <ele>283.40784</ele>
        <time>2018-11-17T09:03:30Z</time>
      </trkpt>
      <trkpt lat="43.43689" lon="1.45804">
        <ele>283.50293</ele>
        <time>2018-11-17T09:03:31Z</time>
      </trkpt>
      <trkpt lat="43.43689" lon="1.45806">
        <ele>283.59213</ele>
        <time>2018-11-17T09:03:32Z</time>
      </trkpt>
      <trkpt lat="43.43688" lon="1.45808">
        <ele>283.64368</ele>
        <time>2018-11-17T09:03:33Z</time>
      </trkpt>
      <trkpt lat="43.43687" lon="1.4581">
        <ele>283.62177</ele>
        <time>2018-11-17T09:03:34Z</time>
      </trkpt>
      <trkpt lat="43.43682" lon="1.45822">
        <ele>284.27167</ele>
        <time>2018-11-17T09:03:42Z</time>
      </trkpt>
      <trkpt lat="43.43682" lon="1.45822">
        <ele>284.27167</ele>
        <time>2018-11-17T09:03:42Z</time>
      </trkpt>
      <trkpt lat="43.43678" lon="1.45833">
        <ele>284.40228</ele>
        <time>2018-11-17T09:03:49Z</time>
      </trkpt>
      <trkpt lat="43.43677" lon="1.45835">
        <ele>284.45502</ele>
        <time>2018-11-17T09:03:50Z</time>
      </trkpt>
      <trkpt lat="43.43676" lon="1.45836">
        <ele>284.5407</ele>
        <time>2018-11-17T09:03:51Z</time>
      </trkpt>
      <trkpt lat="43.43676" lon="1.45838">
        <ele>284.55713</ele>
        <time>2018-11-17T09:03:52Z</time>
      </trkpt>
      <trkpt lat="43.43675" lon="1.4584">
        <ele>284.6145</ele>
        <time>2018-11-17T09:03:53Z</time>
      </trkpt>
      <trkpt lat="43.43674" lon="1.45842">
        <ele>284.8293</ele>
        <time>2018-11-17T09:03:55Z</time>
      </trkpt>
      <trkpt lat="43.43674" lon="1.45842">
        <ele>284.8293</ele>
        <time>2018-11-17T09:03:55Z</time>
      </trkpt>
      <trkpt lat="43.4367" lon="1.45853">
        <ele>285.92596</ele>
        <time>2018-11-17T09:04:03Z</time>
      </trkpt>
      <trkpt lat="43.43669" lon="1.45855">
        <ele>286.05673</ele>
        <time>2018-11-17T09:04:04Z</time>
      </trkpt>
      <trkpt lat="43.43668" lon="1.45857">
        <ele>286.19556</ele>
        <time>2018-11-17T09:04:05Z</time>
      </trkpt>
      <trkpt lat="43.43667" lon="1.45859">
        <ele>286.23746</ele>
        <time>2018-11-17T09:04:06Z</time>
      </trkpt>
      <trkpt lat="43.43666" lon="1.4586">
        <ele>286.28256</ele>
        <time>2018-11-17T09:04:07Z</time>
      </trkpt>
      <trkpt lat="43.43665" lon="1.45862">
        <ele>286.3533</ele>
        <time>2018-11-17T09:04:08Z</time>
      </trkpt>
      <trkpt lat="43.43665" lon="1.45863">
        <ele>286.4543</ele>
        <time>2018-11-17T09:04:09Z</time>
      </trkpt>
      <trkpt lat="43.43665" lon="1.45864">
        <ele>286.59518</ele>
        <time>2018-11-17T09:04:10Z</time>
      </trkpt>
      <trkpt lat="43.43664" lon="1.45866">
        <ele>286.682</ele>
        <time>2018-11-17T09:04:11Z</time>
      </trkpt>
      <trkpt lat="43.43663" lon="1.45867">
        <ele>286.73267</ele>
        <time>2018-11-17T09:04:12Z</time>
      </trkpt>
      <trkpt lat="43.43663" lon="1.45868">
        <ele>286.79285</ele>
        <time>2018-11-17T09:04:13Z</time>
      </trkpt>
      <trkpt lat="43.43662" lon="1.45871">
        <ele>286.82434</ele>
        <time>2018-11-17T09:04:14Z</time>
      </trkpt>
      <trkpt lat="43.43662" lon="1.45873">
        <ele>286.85437</ele>
        <time>2018-11-17T09:04:15Z</time>
      </trkpt>
      <trkpt lat="43.43662" lon="1.45875">
        <ele>286.9293</ele>
        <time>2018-11-17T09:04:16Z</time>
      </trkpt>
      <trkpt lat="43.43661" lon="1.45877">
        <ele>286.9986</ele>
        <time>2018-11-17T09:04:17Z</time>
      </trkpt>
      <trkpt lat="43.43661" lon="1.45878">
        <ele>287.08484</ele>
        <time>2018-11-17T09:04:18Z</time>
      </trkpt>
      <trkpt lat="43.43661" lon="1.45879">
        <ele>287.1837</ele>
        <time>2018-11-17T09:04:19Z</time>
      </trkpt>
      <trkpt lat="43.4366" lon="1.45881">
        <ele>287.3242</ele>
        <time>2018-11-17T09:04:20Z</time>
      </trkpt>
      <trkpt lat="43.4366" lon="1.45882">
        <ele>287.46118</ele>
        <time>2018-11-17T09:04:21Z</time>
      </trkpt>
      <trkpt lat="43.43659" lon="1.45884">
        <ele>287.52966</ele>
        <time>2018-11-17T09:04:22Z</time>
      </trkpt>
      <trkpt lat="43.43658" lon="1.45886">
        <ele>287.62823</ele>
        <time>2018-11-17T09:04:23Z</time>
      </trkpt>
      <trkpt lat="43.43658" lon="1.45888">
        <ele>287.71933</ele>
        <time>2018-11-17T09:04:24Z</time>
      </trkpt>
      <trkpt lat="43.43657" lon="1.4589">
        <ele>287.85727</ele>
        <time>2018-11-17T09:04:25Z</time>
      </trkpt>
      <trkpt lat="43.43657" lon="1.45893">
        <ele>287.92136</ele>
        <time>2018-11-17T09:04:26Z</time>
      </trkpt>
      <trkpt lat="43.43656" lon="1.45895">
        <ele>288.00888</ele>
        <time>2018-11-17T09:04:27Z</time>
      </trkpt>
      <trkpt lat="43.43655" lon="1.45897">
        <ele>288.14734</ele>
        <time>2018-11-17T09:04:28Z</time>
      </trkpt>
      <trkpt lat="43.43655" lon="1.45898">
        <ele>288.2819</ele>
        <time>2018-11-17T09:04:29Z</time>
      </trkpt>
      <trkpt lat="43.43654" lon="1.45899">
        <ele>288.43484</ele>
        <time>2018-11-17T09:04:30Z</time>
      </trkpt>
      <trkpt lat="43.43654" lon="1.459">
        <ele>288.55295</ele>
        <time>2018-11-17T09:04:31Z</time>
      </trkpt>
      <trkpt lat="43.43654" lon="1.45902">
        <ele>288.60477</ele>
        <time>2018-11-17T09:04:32Z</time>
      </trkpt>
      <trkpt lat="43.43654" lon="1.45904">
        <ele>288.71848</ele>
        <time>2018-11-17T09:04:33Z</time>
      </trkpt>
      <trkpt lat="43.43654" lon="1.45905">
        <ele>288.83563</ele>
        <time>2018-11-17T09:04:34Z</time>
      </trkpt>
      <trkpt lat="43.43654" lon="1.45906">
        <ele>288.94043</ele>
        <time>2018-11-17T09:04:35Z</time>
      </trkpt>
      <trkpt lat="43.43653" lon="1.45909">
        <ele>289.05618</ele>
        <time>2018-11-17T09:04:36Z</time>
      </trkpt>
      <trkpt lat="43.43653" lon="1.45911">
        <ele>289.17303</ele>
        <time>2018-11-17T09:04:37Z</time>
      </trkpt>
      <trkpt lat="43.43652" lon="1.45912">
        <ele>289.28052</ele>
        <time>2018-11-17T09:04:38Z</time>
      </trkpt>
      <trkpt lat="43.43652" lon="1.45915">
        <ele>289.37738</ele>
        <time>2018-11-17T09:04:39Z</time>
      </trkpt>
      <trkpt lat="43.43651" lon="1.4592">
        <ele>289.67474</ele>
        <time>2018-11-17T09:04:41Z</time>
      </trkpt>
      <trkpt lat="43.43651" lon="1.4592">
        <ele>289.67474</ele>
        <time>2018-11-17T09:04:41Z</time>
      </trkpt>
      <trkpt lat="43.43649" lon="1.45933">
        <ele>290.70694</ele>
        <time>2018-11-17T09:04:49Z</time>
      </trkpt>
      <trkpt lat="43.43649" lon="1.45934">
        <ele>290.83777</ele>
        <time>2018-11-17T09:04:50Z</time>
      </trkpt>
      <trkpt lat="43.43648" lon="1.45938">
        <ele>291.01468</ele>
        <time>2018-11-17T09:04:52Z</time>
      </trkpt>
      <trkpt lat="43.43648" lon="1.45938">
        <ele>291.01468</ele>
        <time>2018-11-17T09:04:52Z</time>
      </trkpt>
      <trkpt lat="43.43648" lon="1.45952">
        <ele>291.53064</ele>
        <time>2018-11-17T09:04:58Z</time>
      </trkpt>
      <trkpt lat="43.43647" lon="1.45954">
        <ele>291.5245</ele>
        <time>2018-11-17T09:04:59Z</time>
      </trkpt>
      <trkpt lat="43.43648" lon="1.45968">
        <ele>291.93622</ele>
        <time>2018-11-17T09:05:07Z</time>
      </trkpt>
      <trkpt lat="43.43648" lon="1.45968">
        <ele>291.93622</ele>
        <time>2018-11-17T09:05:07Z</time>
      </trkpt>
      <trkpt lat="43.43647" lon="1.45981">
        <ele>293.18567</ele>
        <time>2018-11-17T09:05:15Z</time>
      </trkpt>
      <trkpt lat="43.43647" lon="1.45982">
        <ele>293.33618</ele>
        <time>2018-11-17T09:05:16Z</time>
      </trkpt>
      <trkpt lat="43.43647" lon="1.45986">
        <ele>293.57635</ele>
        <time>2018-11-17T09:05:18Z</time>
      </trkpt>
      <trkpt lat="43.43647" lon="1.45986">
        <ele>293.57635</ele>
        <time>2018-11-17T09:05:18Z</time>
      </trkpt>
      <trkpt lat="43.43645" lon="1.46">
        <ele>294.49585</ele>
        <time>2018-11-17T09:05:25Z</time>
      </trkpt>
      <trkpt lat="43.43645" lon="1.46">
        <ele>294.49585</ele>
        <time>2018-11-17T09:05:25Z</time>
      </trkpt>
      <trkpt lat="43.43643" lon="1.46015">
        <ele>295.19943</ele>
        <time>2018-11-17T09:05:33Z</time>
      </trkpt>
      <trkpt lat="43.43644" lon="1.46016">
        <ele>295.26868</ele>
        <time>2018-11-17T09:05:34Z</time>
      </trkpt>
      <trkpt lat="43.43644" lon="1.46017">
        <ele>295.36276</ele>
        <time>2018-11-17T09:05:35Z</time>
      </trkpt>
      <trkpt lat="43.43644" lon="1.46018">
        <ele>295.4932</ele>
        <time>2018-11-17T09:05:36Z</time>
      </trkpt>
      <trkpt lat="43.43644" lon="1.4602">
        <ele>295.60492</ele>
        <time>2018-11-17T09:05:37Z</time>
      </trkpt>
      <trkpt lat="43.43644" lon="1.46022">
        <ele>295.74194</ele>
        <time>2018-11-17T09:05:38Z</time>
      </trkpt>
      <trkpt lat="43.43643" lon="1.46024">
        <ele>295.86887</ele>
        <time>2018-11-17T09:05:39Z</time>
      </trkpt>
      <trkpt lat="43.43642" lon="1.46027">
        <ele>295.982</ele>
        <time>2018-11-17T09:05:40Z</time>
      </trkpt>
      <trkpt lat="43.43642" lon="1.46029">
        <ele>296.09668</ele>
        <time>2018-11-17T09:05:41Z</time>
      </trkpt>
      <trkpt lat="43.43642" lon="1.46031">
        <ele>296.2665</ele>
        <time>2018-11-17T09:05:42Z</time>
      </trkpt>
      <trkpt lat="43.43642" lon="1.46033">
        <ele>296.43835</ele>
        <time>2018-11-17T09:05:43Z</time>
      </trkpt>
      <trkpt lat="43.43642" lon="1.46035">
        <ele>296.62936</ele>
        <time>2018-11-17T09:05:44Z</time>
      </trkpt>
      <trkpt lat="43.43642" lon="1.46037">
        <ele>296.78317</ele>
        <time>2018-11-17T09:05:45Z</time>
      </trkpt>
      <trkpt lat="43.43642" lon="1.4604">
        <ele>296.9418</ele>
        <time>2018-11-17T09:05:46Z</time>
      </trkpt>
      <trkpt lat="43.43642" lon="1.46042">
        <ele>297.12964</ele>
        <time>2018-11-17T09:05:47Z</time>
      </trkpt>
      <trkpt lat="43.43642" lon="1.46044">
        <ele>297.19397</ele>
        <time>2018-11-17T09:05:48Z</time>
      </trkpt>
      <trkpt lat="43.43642" lon="1.46046">
        <ele>297.2381</ele>
        <time>2018-11-17T09:05:49Z</time>
      </trkpt>
      <trkpt lat="43.43642" lon="1.46048">
        <ele>297.2626</ele>
        <time>2018-11-17T09:05:50Z</time>
      </trkpt>
      <trkpt lat="43.43641" lon="1.46051">
        <ele>297.28568</ele>
        <time>2018-11-17T09:05:51Z</time>
      </trkpt>
      <trkpt lat="43.43641" lon="1.46053">
        <ele>297.3441</ele>
        <time>2018-11-17T09:05:52Z</time>
      </trkpt>
      <trkpt lat="43.43641" lon="1.46055">
        <ele>297.4277</ele>
        <time>2018-11-17T09:05:53Z</time>
      </trkpt>
      <trkpt lat="43.4364" lon="1.46056">
        <ele>297.55273</ele>
        <time>2018-11-17T09:05:54Z</time>
      </trkpt>
      <trkpt lat="43.4364" lon="1.46057">
        <ele>297.6422</ele>
        <time>2018-11-17T09:05:55Z</time>
      </trkpt>
      <trkpt lat="43.4364" lon="1.46058">
        <ele>297.77698</ele>
        <time>2018-11-17T09:05:56Z</time>
      </trkpt>
      <trkpt lat="43.43639" lon="1.46058">
        <ele>297.8892</ele>
        <time>2018-11-17T09:05:57Z</time>
      </trkpt>
      <trkpt lat="43.43639" lon="1.46061">
        <ele>298.0545</ele>
        <time>2018-11-17T09:05:58Z</time>
      </trkpt>
      <trkpt lat="43.43638" lon="1.46064">
        <ele>298.19476</ele>
        <time>2018-11-17T09:05:59Z</time>
      </trkpt>
      <trkpt lat="43.43638" lon="1.46066">
        <ele>298.26254</ele>
        <time>2018-11-17T09:06:00Z</time>
      </trkpt>
      <trkpt lat="43.43637" lon="1.46068">
        <ele>298.33325</ele>
        <time>2018-11-17T09:06:01Z</time>
      </trkpt>
      <trkpt lat="43.43637" lon="1.4607">
        <ele>298.37463</ele>
        <time>2018-11-17T09:06:02Z</time>
      </trkpt>
      <trkpt lat="43.43636" lon="1.46072">
        <ele>298.40146</ele>
        <time>2018-11-17T09:06:03Z</time>
      </trkpt>
      <trkpt lat="43.43636" lon="1.46074">
        <ele>298.4434</ele>
        <time>2018-11-17T09:06:04Z</time>
      </trkpt>
      <trkpt lat="43.43636" lon="1.46075">
        <ele>298.4395</ele>
        <time>2018-11-17T09:06:05Z</time>
      </trkpt>
      <trkpt lat="43.43633" lon="1.4609">
        <ele>299.19778</ele>
        <time>2018-11-17T09:06:15Z</time>
      </trkpt>
      <trkpt lat="43.43633" lon="1.46091">
        <ele>299.32114</ele>
        <time>2018-11-17T09:06:16Z</time>
      </trkpt>
      <trkpt lat="43.43632" lon="1.46091">
        <ele>299.44907</ele>
        <time>2018-11-17T09:06:17Z</time>
      </trkpt>
      <trkpt lat="43.43631" lon="1.46091">
        <ele>299.5546</ele>
        <time>2018-11-17T09:06:18Z</time>
      </trkpt>
      <trkpt lat="43.43631" lon="1.46093">
        <ele>299.6772</ele>
        <time>2018-11-17T09:06:19Z</time>
      </trkpt>
      <trkpt lat="43.4363" lon="1.46097">
        <ele>299.80685</ele>
        <time>2018-11-17T09:06:20Z</time>
      </trkpt>
      <trkpt lat="43.4363" lon="1.461">
        <ele>299.92444</ele>
        <time>2018-11-17T09:06:21Z</time>
      </trkpt>
      <trkpt lat="43.43629" lon="1.46104">
        <ele>300.04346</ele>
        <time>2018-11-17T09:06:22Z</time>
      </trkpt>
      <trkpt lat="43.43628" lon="1.46106">
        <ele>300.16898</ele>
        <time>2018-11-17T09:06:23Z</time>
      </trkpt>
      <trkpt lat="43.43628" lon="1.46109">
        <ele>300.25052</ele>
        <time>2018-11-17T09:06:24Z</time>
      </trkpt>
      <trkpt lat="43.43628" lon="1.46111">
        <ele>300.3541</ele>
        <time>2018-11-17T09:06:25Z</time>
      </trkpt>
      <trkpt lat="43.43628" lon="1.46112">
        <ele>300.47363</ele>
        <time>2018-11-17T09:06:26Z</time>
      </trkpt>
      <trkpt lat="43.43628" lon="1.46114">
        <ele>300.53442</ele>
        <time>2018-11-17T09:06:27Z</time>
      </trkpt>
      <trkpt lat="43.43627" lon="1.46116">
        <ele>300.65536</ele>
        <time>2018-11-17T09:06:28Z</time>
      </trkpt>
      <trkpt lat="43.43627" lon="1.46117">
        <ele>300.76868</ele>
        <time>2018-11-17T09:06:29Z</time>
      </trkpt>
      <trkpt lat="43.43627" lon="1.46119">
        <ele>300.7953</ele>
        <time>2018-11-17T09:06:30Z</time>
      </trkpt>
      <trkpt lat="43.43627" lon="1.46121">
        <ele>300.71973</ele>
        <time>2018-11-17T09:06:31Z</time>
      </trkpt>
      <trkpt lat="43.43625" lon="1.46134">
        <ele>300.50064</ele>
        <time>2018-11-17T09:06:40Z</time>
      </trkpt>
      <trkpt lat="43.43621" lon="1.46144">
        <ele>301.11304</ele>
        <time>2018-11-17T09:06:46Z</time>
      </trkpt>
      <trkpt lat="43.4362" lon="1.46147">
        <ele>301.16718</ele>
        <time>2018-11-17T09:06:47Z</time>
      </trkpt>
      <trkpt lat="43.4362" lon="1.4615">
        <ele>301.2323</ele>
        <time>2018-11-17T09:06:48Z</time>
      </trkpt>
      <trkpt lat="43.43619" lon="1.46152">
        <ele>301.19495</ele>
        <time>2018-11-17T09:06:49Z</time>
      </trkpt>
      <trkpt lat="43.43616" lon="1.46162">
        <ele>301.18558</ele>
        <time>2018-11-17T09:06:59Z</time>
      </trkpt>
      <trkpt lat="43.43616" lon="1.46162">
        <ele>301.18558</ele>
        <time>2018-11-17T09:06:59Z</time>
      </trkpt>
      <trkpt lat="43.43616" lon="1.4616">
        <ele>302.33176</ele>
        <time>2018-11-17T09:07:40Z</time>
      </trkpt>
      <trkpt lat="43.43616" lon="1.4616">
        <ele>302.33176</ele>
        <time>2018-11-17T09:07:40Z</time>
      </trkpt>
      <trkpt lat="43.43614" lon="1.46173">
        <ele>303.2781</ele>
        <time>2018-11-17T09:08:46Z</time>
      </trkpt>
      <trkpt lat="43.43614" lon="1.46175">
        <ele>303.27963</ele>
        <time>2018-11-17T09:08:47Z</time>
      </trkpt>
      <trkpt lat="43.43611" lon="1.46188">
        <ele>303.42926</ele>
        <time>2018-11-17T09:08:54Z</time>
      </trkpt>
      <trkpt lat="43.43611" lon="1.4619">
        <ele>303.48373</ele>
        <time>2018-11-17T09:08:55Z</time>
      </trkpt>
      <trkpt lat="43.43611" lon="1.46192">
        <ele>303.5356</ele>
        <time>2018-11-17T09:08:56Z</time>
      </trkpt>
      <trkpt lat="43.4361" lon="1.46194">
        <ele>303.59628</ele>
        <time>2018-11-17T09:08:57Z</time>
      </trkpt>
      <trkpt lat="43.4361" lon="1.46196">
        <ele>303.65707</ele>
        <time>2018-11-17T09:08:58Z</time>
      </trkpt>
      <trkpt lat="43.4361" lon="1.46198">
        <ele>303.6977</ele>
        <time>2018-11-17T09:08:59Z</time>
      </trkpt>
      <trkpt lat="43.4361" lon="1.46201">
        <ele>303.7656</ele>
        <time>2018-11-17T09:09:00Z</time>
      </trkpt>
      <trkpt lat="43.43609" lon="1.46203">
        <ele>303.81686</ele>
        <time>2018-11-17T09:09:01Z</time>
      </trkpt>
      <trkpt lat="43.43609" lon="1.46206">
        <ele>303.8347</ele>
        <time>2018-11-17T09:09:02Z</time>
      </trkpt>
      <trkpt lat="43.43609" lon="1.46208">
        <ele>303.87112</ele>
        <time>2018-11-17T09:09:03Z</time>
      </trkpt>
      <trkpt lat="43.43608" lon="1.4621">
        <ele>303.9147</ele>
        <time>2018-11-17T09:09:04Z</time>
      </trkpt>
      <trkpt lat="43.43608" lon="1.46211">
        <ele>304.02628</ele>
        <time>2018-11-17T09:09:05Z</time>
      </trkpt>
      <trkpt lat="43.43608" lon="1.46213">
        <ele>304.1096</ele>
        <time>2018-11-17T09:09:06Z</time>
      </trkpt>
      <trkpt lat="43.43607" lon="1.46216">
        <ele>304.14755</ele>
        <time>2018-11-17T09:09:07Z</time>
      </trkpt>
      <trkpt lat="43.43607" lon="1.46218">
        <ele>304.19534</ele>
        <time>2018-11-17T09:09:08Z</time>
      </trkpt>
      <trkpt lat="43.43606" lon="1.4622">
        <ele>304.25085</ele>
        <time>2018-11-17T09:09:09Z</time>
      </trkpt>
      <trkpt lat="43.43604" lon="1.46224">
        <ele>304.30905</ele>
        <time>2018-11-17T09:09:11Z</time>
      </trkpt>
      <trkpt lat="43.43604" lon="1.46224">
        <ele>304.30905</ele>
        <time>2018-11-17T09:09:11Z</time>
      </trkpt>
      <trkpt lat="43.43601" lon="1.46235">
        <ele>304.4833</ele>
        <time>2018-11-17T09:09:16Z</time>
      </trkpt>
      <trkpt lat="43.436" lon="1.46239">
        <ele>304.70505</ele>
        <time>2018-11-17T09:09:18Z</time>
      </trkpt>
      <trkpt lat="43.436" lon="1.46239">
        <ele>304.70505</ele>
        <time>2018-11-17T09:09:18Z</time>
      </trkpt>
      <trkpt lat="43.43597" lon="1.46252">
        <ele>305.22974</ele>
        <time>2018-11-17T09:09:24Z</time>
      </trkpt>
      <trkpt lat="43.43596" lon="1.46254">
        <ele>305.3234</ele>
        <time>2018-11-17T09:09:25Z</time>
      </trkpt>
      <trkpt lat="43.43595" lon="1.46258">
        <ele>305.48465</ele>
        <time>2018-11-17T09:09:27Z</time>
      </trkpt>
      <trkpt lat="43.43595" lon="1.46258">
        <ele>305.48465</ele>
        <time>2018-11-17T09:09:27Z</time>
      </trkpt>
      <trkpt lat="43.43591" lon="1.46269">
        <ele>306.29166</ele>
        <time>2018-11-17T09:09:34Z</time>
      </trkpt>
      <trkpt lat="43.4359" lon="1.46271">
        <ele>306.38495</ele>
        <time>2018-11-17T09:09:35Z</time>
      </trkpt>
      <trkpt lat="43.43589" lon="1.46273">
        <ele>306.51178</ele>
        <time>2018-11-17T09:09:36Z</time>
      </trkpt>
      <trkpt lat="43.43589" lon="1.46276">
        <ele>306.653</ele>
        <time>2018-11-17T09:09:37Z</time>
      </trkpt>
      <trkpt lat="43.43589" lon="1.46278">
        <ele>306.80164</ele>
        <time>2018-11-17T09:09:38Z</time>
      </trkpt>
      <trkpt lat="43.43589" lon="1.46281">
        <ele>306.95993</ele>
        <time>2018-11-17T09:09:39Z</time>
      </trkpt>
      <trkpt lat="43.43589" lon="1.46283">
        <ele>307.05927</ele>
        <time>2018-11-17T09:09:40Z</time>
      </trkpt>
      <trkpt lat="43.43589" lon="1.46287">
        <ele>307.17905</ele>
        <time>2018-11-17T09:09:41Z</time>
      </trkpt>
      <trkpt lat="43.43589" lon="1.46288">
        <ele>307.2838</ele>
        <time>2018-11-17T09:09:42Z</time>
      </trkpt>
      <trkpt lat="43.43589" lon="1.4629">
        <ele>307.35657</ele>
        <time>2018-11-17T09:09:43Z</time>
      </trkpt>
      <trkpt lat="43.43588" lon="1.46294">
        <ele>307.5474</ele>
        <time>2018-11-17T09:09:45Z</time>
      </trkpt>
      <trkpt lat="43.43588" lon="1.46294">
        <ele>307.5474</ele>
        <time>2018-11-17T09:09:45Z</time>
      </trkpt>
      <trkpt lat="43.43586" lon="1.46307">
        <ele>308.238</ele>
        <time>2018-11-17T09:09:53Z</time>
      </trkpt>
      <trkpt lat="43.43585" lon="1.46309">
        <ele>308.33643</ele>
        <time>2018-11-17T09:09:54Z</time>
      </trkpt>
      <trkpt lat="43.43585" lon="1.46312">
        <ele>308.46762</ele>
        <time>2018-11-17T09:09:55Z</time>
      </trkpt>
      <trkpt lat="43.43584" lon="1.46314">
        <ele>308.5453</ele>
        <time>2018-11-17T09:09:56Z</time>
      </trkpt>
      <trkpt lat="43.43584" lon="1.46315">
        <ele>308.61118</ele>
        <time>2018-11-17T09:09:57Z</time>
      </trkpt>
      <trkpt lat="43.43584" lon="1.46317">
        <ele>308.64856</ele>
        <time>2018-11-17T09:09:58Z</time>
      </trkpt>
      <trkpt lat="43.43583" lon="1.46319">
        <ele>308.70425</ele>
        <time>2018-11-17T09:09:59Z</time>
      </trkpt>
      <trkpt lat="43.43583" lon="1.46321">
        <ele>308.78058</ele>
        <time>2018-11-17T09:10:00Z</time>
      </trkpt>
      <trkpt lat="43.43583" lon="1.46323">
        <ele>308.82965</ele>
        <time>2018-11-17T09:10:01Z</time>
      </trkpt>
      <trkpt lat="43.43583" lon="1.46325">
        <ele>308.86813</ele>
        <time>2018-11-17T09:10:02Z</time>
      </trkpt>
      <trkpt lat="43.43582" lon="1.46327">
        <ele>308.93076</ele>
        <time>2018-11-17T09:10:03Z</time>
      </trkpt>
      <trkpt lat="43.43582" lon="1.46329">
        <ele>308.94238</ele>
        <time>2018-11-17T09:10:04Z</time>
      </trkpt>
      <trkpt lat="43.43581" lon="1.46331">
        <ele>308.99915</ele>
        <time>2018-11-17T09:10:05Z</time>
      </trkpt>
      <trkpt lat="43.43581" lon="1.46334">
        <ele>309.01837</ele>
        <time>2018-11-17T09:10:06Z</time>
      </trkpt>
      <trkpt lat="43.4358" lon="1.46336">
        <ele>309.079</ele>
        <time>2018-11-17T09:10:07Z</time>
      </trkpt>
      <trkpt lat="43.4358" lon="1.46338">
        <ele>309.13675</ele>
        <time>2018-11-17T09:10:08Z</time>
      </trkpt>
      <trkpt lat="43.4358" lon="1.4634">
        <ele>309.1517</ele>
        <time>2018-11-17T09:10:09Z</time>
      </trkpt>
      <trkpt lat="43.4358" lon="1.46342">
        <ele>309.2273</ele>
        <time>2018-11-17T09:10:10Z</time>
      </trkpt>
      <trkpt lat="43.4358" lon="1.46344">
        <ele>309.2985</ele>
        <time>2018-11-17T09:10:11Z</time>
      </trkpt>
      <trkpt lat="43.43578" lon="1.46346">
        <ele>309.3806</ele>
        <time>2018-11-17T09:10:12Z</time>
      </trkpt>
      <trkpt lat="43.43578" lon="1.46348">
        <ele>309.43124</ele>
        <time>2018-11-17T09:10:13Z</time>
      </trkpt>
      <trkpt lat="43.43577" lon="1.4635">
        <ele>309.4815</ele>
        <time>2018-11-17T09:10:14Z</time>
      </trkpt>
      <trkpt lat="43.43577" lon="1.46353">
        <ele>309.4274</ele>
        <time>2018-11-17T09:10:15Z</time>
      </trkpt>
      <trkpt lat="43.43574" lon="1.46366">
        <ele>309.5698</ele>
        <time>2018-11-17T09:10:21Z</time>
      </trkpt>
      <trkpt lat="43.43573" lon="1.46367">
        <ele>309.67526</ele>
        <time>2018-11-17T09:10:22Z</time>
      </trkpt>
      <trkpt lat="43.43573" lon="1.4637">
        <ele>309.79156</ele>
        <time>2018-11-17T09:10:23Z</time>
      </trkpt>
      <trkpt lat="43.43573" lon="1.46372">
        <ele>309.88843</ele>
        <time>2018-11-17T09:10:24Z</time>
      </trkpt>
      <trkpt lat="43.43573" lon="1.46374">
        <ele>310.03952</ele>
        <time>2018-11-17T09:10:25Z</time>
      </trkpt>
      <trkpt lat="43.43572" lon="1.46376">
        <ele>310.08124</ele>
        <time>2018-11-17T09:10:26Z</time>
      </trkpt>
      <trkpt lat="43.43572" lon="1.46378">
        <ele>310.13623</ele>
        <time>2018-11-17T09:10:27Z</time>
      </trkpt>
      <trkpt lat="43.43572" lon="1.4638">
        <ele>310.17697</ele>
        <time>2018-11-17T09:10:28Z</time>
      </trkpt>
      <trkpt lat="43.43572" lon="1.46383">
        <ele>310.20425</ele>
        <time>2018-11-17T09:10:29Z</time>
      </trkpt>
      <trkpt lat="43.43572" lon="1.46385">
        <ele>310.26035</ele>
        <time>2018-11-17T09:10:30Z</time>
      </trkpt>
      <trkpt lat="43.43572" lon="1.46387">
        <ele>310.3561</ele>
        <time>2018-11-17T09:10:32Z</time>
      </trkpt>
      <trkpt lat="43.43572" lon="1.46387">
        <ele>310.3561</ele>
        <time>2018-11-17T09:10:32Z</time>
      </trkpt>
      <trkpt lat="43.43571" lon="1.464">
        <ele>310.8114</ele>
        <time>2018-11-17T09:10:40Z</time>
      </trkpt>
      <trkpt lat="43.43571" lon="1.46401">
        <ele>310.86502</ele>
        <time>2018-11-17T09:10:41Z</time>
      </trkpt>
      <trkpt lat="43.4357" lon="1.46404">
        <ele>310.95013</ele>
        <time>2018-11-17T09:10:42Z</time>
      </trkpt>
      <trkpt lat="43.4357" lon="1.46406">
        <ele>311.03867</ele>
        <time>2018-11-17T09:10:43Z</time>
      </trkpt>
      <trkpt lat="43.4357" lon="1.46408">
        <ele>311.08884</ele>
        <time>2018-11-17T09:10:44Z</time>
      </trkpt>
      <trkpt lat="43.4357" lon="1.46411">
        <ele>311.13998</ele>
        <time>2018-11-17T09:10:45Z</time>
      </trkpt>
      <trkpt lat="43.4357" lon="1.46414">
        <ele>311.18195</ele>
        <time>2018-11-17T09:10:46Z</time>
      </trkpt>
      <trkpt lat="43.4357" lon="1.46415">
        <ele>311.21042</ele>
        <time>2018-11-17T09:10:47Z</time>
      </trkpt>
      <trkpt lat="43.43569" lon="1.46417">
        <ele>311.27203</ele>
        <time>2018-11-17T09:10:48Z</time>
      </trkpt>
      <trkpt lat="43.43568" lon="1.46418">
        <ele>311.3187</ele>
        <time>2018-11-17T09:10:49Z</time>
      </trkpt>
      <trkpt lat="43.43568" lon="1.46423">
        <ele>311.41202</ele>
        <time>2018-11-17T09:10:51Z</time>
      </trkpt>
      <trkpt lat="43.43568" lon="1.46425">
        <ele>311.4483</ele>
        <time>2018-11-17T09:10:52Z</time>
      </trkpt>
      <trkpt lat="43.43568" lon="1.46425">
        <ele>311.4483</ele>
        <time>2018-11-17T09:10:52Z</time>
      </trkpt>
      <trkpt lat="43.43567" lon="1.46438">
        <ele>311.6747</ele>
        <time>2018-11-17T09:10:59Z</time>
      </trkpt>
      <trkpt lat="43.43567" lon="1.4644">
        <ele>311.6563</ele>
        <time>2018-11-17T09:11:00Z</time>
      </trkpt>
      <trkpt lat="43.43565" lon="1.46454">
        <ele>311.6073</ele>
        <time>2018-11-17T09:11:06Z</time>
      </trkpt>
      <trkpt lat="43.43565" lon="1.46466">
        <ele>311.44904</ele>
        <time>2018-11-17T09:11:14Z</time>
      </trkpt>
      <trkpt lat="43.43561" lon="1.46481">
        <ele>311.43604</ele>
        <time>2018-11-17T09:11:22Z</time>
      </trkpt>
      <trkpt lat="43.4356" lon="1.46493">
        <ele>311.55438</ele>
        <time>2018-11-17T09:11:28Z</time>
      </trkpt>
      <trkpt lat="43.43557" lon="1.46506">
        <ele>311.90778</ele>
        <time>2018-11-17T09:11:34Z</time>
      </trkpt>
      <trkpt lat="43.43557" lon="1.46507">
        <ele>311.9908</ele>
        <time>2018-11-17T09:11:35Z</time>
      </trkpt>
      <trkpt lat="43.43556" lon="1.46509">
        <ele>312.09418</ele>
        <time>2018-11-17T09:11:36Z</time>
      </trkpt>
      <trkpt lat="43.43556" lon="1.46512">
        <ele>312.20004</ele>
        <time>2018-11-17T09:11:37Z</time>
      </trkpt>
      <trkpt lat="43.43555" lon="1.46514">
        <ele>312.30206</ele>
        <time>2018-11-17T09:11:38Z</time>
      </trkpt>
      <trkpt lat="43.43554" lon="1.46517">
        <ele>312.44385</ele>
        <time>2018-11-17T09:11:40Z</time>
      </trkpt>
      <trkpt lat="43.43554" lon="1.46517">
        <ele>312.44385</ele>
        <time>2018-11-17T09:11:40Z</time>
      </trkpt>
      <trkpt lat="43.4355" lon="1.46531">
        <ele>313.04022</ele>
        <time>2018-11-17T09:11:47Z</time>
      </trkpt>
      <trkpt lat="43.4355" lon="1.46533">
        <ele>313.08432</ele>
        <time>2018-11-17T09:11:48Z</time>
      </trkpt>
      <trkpt lat="43.4355" lon="1.46535">
        <ele>313.12866</ele>
        <time>2018-11-17T09:11:49Z</time>
      </trkpt>
      <trkpt lat="43.43549" lon="1.46539">
        <ele>313.32178</ele>
        <time>2018-11-17T09:11:51Z</time>
      </trkpt>
      <trkpt lat="43.43549" lon="1.4654">
        <ele>313.4002</ele>
        <time>2018-11-17T09:11:52Z</time>
      </trkpt>
      <trkpt lat="43.43549" lon="1.4654">
        <ele>313.4002</ele>
        <time>2018-11-17T09:11:52Z</time>
      </trkpt>
      <trkpt lat="43.43547" lon="1.46554">
        <ele>313.76227</ele>
        <time>2018-11-17T09:12:00Z</time>
      </trkpt>
      <trkpt lat="43.43547" lon="1.46554">
        <ele>313.76227</ele>
        <time>2018-11-17T09:12:00Z</time>
      </trkpt>
      <trkpt lat="43.43544" lon="1.46567">
        <ele>313.65836</ele>
        <time>2018-11-17T09:12:06Z</time>
      </trkpt>
      <trkpt lat="43.43544" lon="1.46571">
        <ele>313.64908</ele>
        <time>2018-11-17T09:12:08Z</time>
      </trkpt>
      <trkpt lat="43.43541" lon="1.46583">
        <ele>313.57755</ele>
        <time>2018-11-17T09:12:15Z</time>
      </trkpt>
      <trkpt lat="43.43538" lon="1.46597">
        <ele>313.49655</ele>
        <time>2018-11-17T09:12:23Z</time>
      </trkpt>
      <trkpt lat="43.43535" lon="1.4661">
        <ele>313.40738</ele>
        <time>2018-11-17T09:12:31Z</time>
      </trkpt>
      <trkpt lat="43.43532" lon="1.46622">
        <ele>312.5909</ele>
        <time>2018-11-17T09:12:41Z</time>
      </trkpt>
      <trkpt lat="43.43528" lon="1.46634">
        <ele>312.30194</ele>
        <time>2018-11-17T09:12:49Z</time>
      </trkpt>
      <trkpt lat="43.43523" lon="1.46646">
        <ele>311.73553</ele>
        <time>2018-11-17T09:12:57Z</time>
      </trkpt>
      <trkpt lat="43.43518" lon="1.46659">
        <ele>311.2472</ele>
        <time>2018-11-17T09:13:04Z</time>
      </trkpt>
      <trkpt lat="43.43515" lon="1.46672">
        <ele>310.88855</ele>
        <time>2018-11-17T09:13:11Z</time>
      </trkpt>
      <trkpt lat="43.43511" lon="1.46684">
        <ele>310.51453</ele>
        <time>2018-11-17T09:13:18Z</time>
      </trkpt>
      <trkpt lat="43.43508" lon="1.46696">
        <ele>310.22662</ele>
        <time>2018-11-17T09:13:27Z</time>
      </trkpt>
      <trkpt lat="43.43505" lon="1.46708">
        <ele>309.91522</ele>
        <time>2018-11-17T09:13:34Z</time>
      </trkpt>
      <trkpt lat="43.43501" lon="1.46721">
        <ele>309.68988</ele>
        <time>2018-11-17T09:13:41Z</time>
      </trkpt>
      <trkpt lat="43.43497" lon="1.46736">
        <ele>309.9768</ele>
        <time>2018-11-17T09:13:50Z</time>
      </trkpt>
      <trkpt lat="43.43492" lon="1.46749">
        <ele>309.86975</ele>
        <time>2018-11-17T09:13:57Z</time>
      </trkpt>
      <trkpt lat="43.43489" lon="1.46762">
        <ele>309.75916</ele>
        <time>2018-11-17T09:14:04Z</time>
      </trkpt>
      <trkpt lat="43.43487" lon="1.46776">
        <ele>309.58484</ele>
        <time>2018-11-17T09:14:11Z</time>
      </trkpt>
      <trkpt lat="43.43484" lon="1.46788">
        <ele>309.5881</ele>
        <time>2018-11-17T09:14:17Z</time>
      </trkpt>
      <trkpt lat="43.4348" lon="1.46801">
        <ele>309.37082</ele>
        <time>2018-11-17T09:14:23Z</time>
      </trkpt>
      <trkpt lat="43.43475" lon="1.46816">
        <ele>309.5606</ele>
        <time>2018-11-17T09:14:32Z</time>
      </trkpt>
      <trkpt lat="43.43472" lon="1.46829">
        <ele>308.98523</ele>
        <time>2018-11-17T09:14:41Z</time>
      </trkpt>
      <trkpt lat="43.43466" lon="1.46839">
        <ele>308.30035</ele>
        <time>2018-11-17T09:14:49Z</time>
      </trkpt>
      <trkpt lat="43.43455" lon="1.46842">
        <ele>307.5624</ele>
        <time>2018-11-17T09:14:58Z</time>
      </trkpt>
      <trkpt lat="43.43448" lon="1.46851">
        <ele>307.0616</ele>
        <time>2018-11-17T09:15:08Z</time>
      </trkpt>
      <trkpt lat="43.43448" lon="1.46864">
        <ele>306.74826</ele>
        <time>2018-11-17T09:15:16Z</time>
      </trkpt>
      <trkpt lat="43.43449" lon="1.46877">
        <ele>306.39758</ele>
        <time>2018-11-17T09:15:23Z</time>
      </trkpt>
      <trkpt lat="43.43451" lon="1.46891">
        <ele>306.54688</ele>
        <time>2018-11-17T09:15:32Z</time>
      </trkpt>
      <trkpt lat="43.43452" lon="1.46903">
        <ele>306.66287</ele>
        <time>2018-11-17T09:15:38Z</time>
      </trkpt>
      <trkpt lat="43.43454" lon="1.46916">
        <ele>306.79364</ele>
        <time>2018-11-17T09:15:47Z</time>
      </trkpt>
      <trkpt lat="43.43455" lon="1.46929">
        <ele>306.69556</ele>
        <time>2018-11-17T09:15:54Z</time>
      </trkpt>
      <trkpt lat="43.43455" lon="1.46943">
        <ele>306.08554</ele>
        <time>2018-11-17T09:16:00Z</time>
      </trkpt>
      <trkpt lat="43.43456" lon="1.46957">
        <ele>305.2756</ele>
        <time>2018-11-17T09:16:09Z</time>
      </trkpt>
      <trkpt lat="43.43457" lon="1.46971">
        <ele>305.13025</ele>
        <time>2018-11-17T09:16:16Z</time>
      </trkpt>
      <trkpt lat="43.43458" lon="1.46984">
        <ele>305.19318</ele>
        <time>2018-11-17T09:16:23Z</time>
      </trkpt>
      <trkpt lat="43.43459" lon="1.46997">
        <ele>305.345</ele>
        <time>2018-11-17T09:16:31Z</time>
      </trkpt>
      <trkpt lat="43.43459" lon="1.47011">
        <ele>305.0268</ele>
        <time>2018-11-17T09:16:38Z</time>
      </trkpt>
      <trkpt lat="43.4346" lon="1.47024">
        <ele>304.67288</ele>
        <time>2018-11-17T09:16:46Z</time>
      </trkpt>
      <trkpt lat="43.43455" lon="1.47035">
        <ele>304.70422</ele>
        <time>2018-11-17T09:16:56Z</time>
      </trkpt>
      <trkpt lat="43.43449" lon="1.47044">
        <ele>304.92184</ele>
        <time>2018-11-17T09:17:04Z</time>
      </trkpt>
      <trkpt lat="43.43442" lon="1.47053">
        <ele>304.84756</ele>
        <time>2018-11-17T09:17:12Z</time>
      </trkpt>
      <trkpt lat="43.43435" lon="1.47061">
        <ele>304.82123</ele>
        <time>2018-11-17T09:17:21Z</time>
      </trkpt>
      <trkpt lat="43.43427" lon="1.47071">
        <ele>304.9083</ele>
        <time>2018-11-17T09:17:29Z</time>
      </trkpt>
      <trkpt lat="43.43421" lon="1.4708">
        <ele>304.81207</ele>
        <time>2018-11-17T09:17:35Z</time>
      </trkpt>
      <trkpt lat="43.43415" lon="1.4709">
        <ele>304.52084</ele>
        <time>2018-11-17T09:17:43Z</time>
      </trkpt>
      <trkpt lat="43.43408" lon="1.471">
        <ele>303.79733</ele>
        <time>2018-11-17T09:17:53Z</time>
      </trkpt>
      <trkpt lat="43.43401" lon="1.4711">
        <ele>303.11365</ele>
        <time>2018-11-17T09:18:01Z</time>
      </trkpt>
      <trkpt lat="43.43395" lon="1.47119">
        <ele>302.70926</ele>
        <time>2018-11-17T09:18:07Z</time>
      </trkpt>
      <trkpt lat="43.43388" lon="1.47129">
        <ele>302.64056</ele>
        <time>2018-11-17T09:18:13Z</time>
      </trkpt>
      <trkpt lat="43.4338" lon="1.47139">
        <ele>302.628</ele>
        <time>2018-11-17T09:18:20Z</time>
      </trkpt>
      <trkpt lat="43.43375" lon="1.47149">
        <ele>302.59586</ele>
        <time>2018-11-17T09:18:26Z</time>
      </trkpt>
      <trkpt lat="43.43369" lon="1.47158">
        <ele>302.24692</ele>
        <time>2018-11-17T09:18:35Z</time>
      </trkpt>
      <trkpt lat="43.43362" lon="1.47169">
        <ele>301.52518</ele>
        <time>2018-11-17T09:18:43Z</time>
      </trkpt>
      <trkpt lat="43.43356" lon="1.4718">
        <ele>300.92404</ele>
        <time>2018-11-17T09:18:51Z</time>
      </trkpt>
      <trkpt lat="43.43349" lon="1.47189">
        <ele>300.73517</ele>
        <time>2018-11-17T09:18:58Z</time>
      </trkpt>
      <trkpt lat="43.43341" lon="1.47199">
        <ele>300.53024</ele>
        <time>2018-11-17T09:19:07Z</time>
      </trkpt>
      <trkpt lat="43.43335" lon="1.47207">
        <ele>300.0368</ele>
        <time>2018-11-17T09:19:16Z</time>
      </trkpt>
      <trkpt lat="43.43329" lon="1.47217">
        <ele>299.5796</ele>
        <time>2018-11-17T09:19:23Z</time>
      </trkpt>
      <trkpt lat="43.43322" lon="1.47227">
        <ele>299.3658</ele>
        <time>2018-11-17T09:19:29Z</time>
      </trkpt>
      <trkpt lat="43.43316" lon="1.47238">
        <ele>298.832</ele>
        <time>2018-11-17T09:19:36Z</time>
      </trkpt>
      <trkpt lat="43.43309" lon="1.47248">
        <ele>298.8638</ele>
        <time>2018-11-17T09:19:44Z</time>
      </trkpt>
      <trkpt lat="43.43302" lon="1.47257">
        <ele>298.93393</ele>
        <time>2018-11-17T09:19:50Z</time>
      </trkpt>
      <trkpt lat="43.43296" lon="1.47266">
        <ele>298.85077</ele>
        <time>2018-11-17T09:19:56Z</time>
      </trkpt>
      <trkpt lat="43.43289" lon="1.47276">
        <ele>298.69647</ele>
        <time>2018-11-17T09:20:04Z</time>
      </trkpt>
      <trkpt lat="43.43282" lon="1.47286">
        <ele>298.37964</ele>
        <time>2018-11-17T09:20:12Z</time>
      </trkpt>
      <trkpt lat="43.43274" lon="1.47295">
        <ele>298.00842</ele>
        <time>2018-11-17T09:20:20Z</time>
      </trkpt>
      <trkpt lat="43.43266" lon="1.47304">
        <ele>297.95972</ele>
        <time>2018-11-17T09:20:26Z</time>
      </trkpt>
      <trkpt lat="43.43258" lon="1.47311">
        <ele>297.97412</ele>
        <time>2018-11-17T09:20:32Z</time>
      </trkpt>
      <trkpt lat="43.4325" lon="1.47318">
        <ele>297.9337</ele>
        <time>2018-11-17T09:20:39Z</time>
      </trkpt>
      <trkpt lat="43.4324" lon="1.47323">
        <ele>297.98816</ele>
        <time>2018-11-17T09:20:46Z</time>
      </trkpt>
      <trkpt lat="43.43231" lon="1.47327">
        <ele>298.46857</ele>
        <time>2018-11-17T09:20:54Z</time>
      </trkpt>
      <trkpt lat="43.43224" lon="1.47336">
        <ele>298.87433</ele>
        <time>2018-11-17T09:21:01Z</time>
      </trkpt>
      <trkpt lat="43.43214" lon="1.47339">
        <ele>299.1179</ele>
        <time>2018-11-17T09:21:07Z</time>
      </trkpt>
      <trkpt lat="43.43205" lon="1.47346">
        <ele>299.8514</ele>
        <time>2018-11-17T09:21:14Z</time>
      </trkpt>
      <trkpt lat="43.43195" lon="1.47349">
        <ele>300.47733</ele>
        <time>2018-11-17T09:21:21Z</time>
      </trkpt>
      <trkpt lat="43.43185" lon="1.47351">
        <ele>300.79166</ele>
        <time>2018-11-17T09:21:30Z</time>
      </trkpt>
      <trkpt lat="43.43176" lon="1.47356">
        <ele>300.82895</ele>
        <time>2018-11-17T09:21:37Z</time>
      </trkpt>
      <trkpt lat="43.43167" lon="1.47362">
        <ele>300.5828</ele>
        <time>2018-11-17T09:21:46Z</time>
      </trkpt>
      <trkpt lat="43.43159" lon="1.4737">
        <ele>299.99094</ele>
        <time>2018-11-17T09:21:52Z</time>
      </trkpt>
      <trkpt lat="43.43148" lon="1.47375">
        <ele>299.45367</ele>
        <time>2018-11-17T09:22:00Z</time>
      </trkpt>
      <trkpt lat="43.4314" lon="1.47381">
        <ele>298.59106</ele>
        <time>2018-11-17T09:22:07Z</time>
      </trkpt>
      <trkpt lat="43.43134" lon="1.47391">
        <ele>297.90472</ele>
        <time>2018-11-17T09:22:13Z</time>
      </trkpt>
      <trkpt lat="43.43126" lon="1.47396">
        <ele>297.11996</ele>
        <time>2018-11-17T09:22:21Z</time>
      </trkpt>
      <trkpt lat="43.43118" lon="1.47402">
        <ele>296.6488</ele>
        <time>2018-11-17T09:22:27Z</time>
      </trkpt>
      <trkpt lat="43.43108" lon="1.47407">
        <ele>296.0555</ele>
        <time>2018-11-17T09:22:32Z</time>
      </trkpt>
      <trkpt lat="43.431" lon="1.47411">
        <ele>296.02194</ele>
        <time>2018-11-17T09:22:40Z</time>
      </trkpt>
      <trkpt lat="43.43092" lon="1.4742">
        <ele>296.37003</ele>
        <time>2018-11-17T09:22:47Z</time>
      </trkpt>
      <trkpt lat="43.43087" lon="1.47429">
        <ele>296.42078</ele>
        <time>2018-11-17T09:22:53Z</time>
      </trkpt>
      <trkpt lat="43.43079" lon="1.47436">
        <ele>296.11862</ele>
        <time>2018-11-17T09:23:01Z</time>
      </trkpt>
      <trkpt lat="43.43074" lon="1.47447">
        <ele>296.199</ele>
        <time>2018-11-17T09:23:06Z</time>
      </trkpt>
      <trkpt lat="43.43068" lon="1.47455">
        <ele>296.25082</ele>
        <time>2018-11-17T09:23:13Z</time>
      </trkpt>
      <trkpt lat="43.4306" lon="1.47465">
        <ele>296.25488</ele>
        <time>2018-11-17T09:23:20Z</time>
      </trkpt>
      <trkpt lat="43.43053" lon="1.47473">
        <ele>296.2582</ele>
        <time>2018-11-17T09:23:26Z</time>
      </trkpt>
      <trkpt lat="43.43045" lon="1.47479">
        <ele>296.30206</ele>
        <time>2018-11-17T09:23:33Z</time>
      </trkpt>
      <trkpt lat="43.43036" lon="1.47483">
        <ele>296.59213</ele>
        <time>2018-11-17T09:23:40Z</time>
      </trkpt>
      <trkpt lat="43.43027" lon="1.47486">
        <ele>297.05627</ele>
        <time>2018-11-17T09:23:46Z</time>
      </trkpt>
      <trkpt lat="43.43018" lon="1.47491">
        <ele>297.6953</ele>
        <time>2018-11-17T09:23:52Z</time>
      </trkpt>
      <trkpt lat="43.43009" lon="1.47494">
        <ele>298.50977</ele>
        <time>2018-11-17T09:23:59Z</time>
      </trkpt>
      <trkpt lat="43.43" lon="1.47499">
        <ele>298.55298</ele>
        <time>2018-11-17T09:24:06Z</time>
      </trkpt>
      <trkpt lat="43.42991" lon="1.47505">
        <ele>298.41727</ele>
        <time>2018-11-17T09:24:14Z</time>
      </trkpt>
      <trkpt lat="43.42983" lon="1.4751">
        <ele>298.28656</ele>
        <time>2018-11-17T09:24:21Z</time>
      </trkpt>
      <trkpt lat="43.42973" lon="1.47514">
        <ele>298.1554</ele>
        <time>2018-11-17T09:24:29Z</time>
      </trkpt>
      <trkpt lat="43.42965" lon="1.47518">
        <ele>298.49997</ele>
        <time>2018-11-17T09:24:35Z</time>
      </trkpt>
      <trkpt lat="43.42956" lon="1.47521">
        <ele>298.58594</ele>
        <time>2018-11-17T09:24:41Z</time>
      </trkpt>
      <trkpt lat="43.42946" lon="1.47525">
        <ele>298.60995</ele>
        <time>2018-11-17T09:24:50Z</time>
      </trkpt>
      <trkpt lat="43.42937" lon="1.4753">
        <ele>298.42236</ele>
        <time>2018-11-17T09:24:56Z</time>
      </trkpt>
      <trkpt lat="43.42928" lon="1.47534">
        <ele>298.1543</ele>
        <time>2018-11-17T09:25:03Z</time>
      </trkpt>
      <trkpt lat="43.42919" lon="1.4754">
        <ele>297.5259</ele>
        <time>2018-11-17T09:25:10Z</time>
      </trkpt>
      <trkpt lat="43.42909" lon="1.47544">
        <ele>296.81888</ele>
        <time>2018-11-17T09:25:18Z</time>
      </trkpt>
      <trkpt lat="43.42899" lon="1.47545">
        <ele>296.58173</ele>
        <time>2018-11-17T09:25:25Z</time>
      </trkpt>
      <trkpt lat="43.42889" lon="1.47548">
        <ele>296.70996</ele>
        <time>2018-11-17T09:25:32Z</time>
      </trkpt>
      <trkpt lat="43.4288" lon="1.47554">
        <ele>296.10358</ele>
        <time>2018-11-17T09:25:40Z</time>
      </trkpt>
      <trkpt lat="43.42871" lon="1.47557">
        <ele>295.7398</ele>
        <time>2018-11-17T09:25:46Z</time>
      </trkpt>
      <trkpt lat="43.42861" lon="1.47559">
        <ele>295.05313</ele>
        <time>2018-11-17T09:25:54Z</time>
      </trkpt>
      <trkpt lat="43.42851" lon="1.47563">
        <ele>294.68625</ele>
        <time>2018-11-17T09:26:01Z</time>
      </trkpt>
      <trkpt lat="43.42842" lon="1.47567">
        <ele>294.02362</ele>
        <time>2018-11-17T09:26:08Z</time>
      </trkpt>
      <trkpt lat="43.42833" lon="1.4757">
        <ele>294.1257</ele>
        <time>2018-11-17T09:26:16Z</time>
      </trkpt>
      <trkpt lat="43.42823" lon="1.47572">
        <ele>294.1103</ele>
        <time>2018-11-17T09:26:25Z</time>
      </trkpt>
      <trkpt lat="43.42813" lon="1.47568">
        <ele>294.13086</ele>
        <time>2018-11-17T09:26:32Z</time>
      </trkpt>
      <trkpt lat="43.42805" lon="1.47563">
        <ele>294.52893</ele>
        <time>2018-11-17T09:26:41Z</time>
      </trkpt>
      <trkpt lat="43.42795" lon="1.47559">
        <ele>295.74557</ele>
        <time>2018-11-17T09:26:49Z</time>
      </trkpt>
      <trkpt lat="43.42786" lon="1.47555">
        <ele>297.06006</ele>
        <time>2018-11-17T09:26:59Z</time>
      </trkpt>
      <trkpt lat="43.42778" lon="1.47546">
        <ele>297.57907</ele>
        <time>2018-11-17T09:27:07Z</time>
      </trkpt>
      <trkpt lat="43.42772" lon="1.47536">
        <ele>298.05936</ele>
        <time>2018-11-17T09:27:16Z</time>
      </trkpt>
      <trkpt lat="43.42773" lon="1.47522">
        <ele>298.4573</ele>
        <time>2018-11-17T09:27:23Z</time>
      </trkpt>
      <trkpt lat="43.42776" lon="1.47508">
        <ele>299.49768</ele>
        <time>2018-11-17T09:27:32Z</time>
      </trkpt>
      <trkpt lat="43.4278" lon="1.47496">
        <ele>300.11734</ele>
        <time>2018-11-17T09:27:40Z</time>
      </trkpt>
      <trkpt lat="43.42784" lon="1.47485">
        <ele>300.02805</ele>
        <time>2018-11-17T09:27:49Z</time>
      </trkpt>
      <trkpt lat="43.4279" lon="1.47474">
        <ele>299.62933</ele>
        <time>2018-11-17T09:28:00Z</time>
      </trkpt>
      <trkpt lat="43.42794" lon="1.47462">
        <ele>298.8153</ele>
        <time>2018-11-17T09:28:07Z</time>
      </trkpt>
      <trkpt lat="43.42798" lon="1.47448">
        <ele>298.5308</ele>
        <time>2018-11-17T09:28:13Z</time>
      </trkpt>
      <trkpt lat="43.42801" lon="1.47436">
        <ele>298.3857</ele>
        <time>2018-11-17T09:28:19Z</time>
      </trkpt>
      <trkpt lat="43.42804" lon="1.47424">
        <ele>298.38712</ele>
        <time>2018-11-17T09:28:26Z</time>
      </trkpt>
      <trkpt lat="43.42806" lon="1.47411">
        <ele>298.8365</ele>
        <time>2018-11-17T09:28:33Z</time>
      </trkpt>
      <trkpt lat="43.42811" lon="1.474">
        <ele>299.3116</ele>
        <time>2018-11-17T09:28:39Z</time>
      </trkpt>
      <trkpt lat="43.42815" lon="1.47388">
        <ele>299.43692</ele>
        <time>2018-11-17T09:28:46Z</time>
      </trkpt>
      <trkpt lat="43.42814" lon="1.47375">
        <ele>299.22824</ele>
        <time>2018-11-17T09:28:55Z</time>
      </trkpt>
      <trkpt lat="43.42806" lon="1.47367">
        <ele>298.56403</ele>
        <time>2018-11-17T09:29:04Z</time>
      </trkpt>
      <trkpt lat="43.42797" lon="1.47361">
        <ele>298.03806</ele>
        <time>2018-11-17T09:29:13Z</time>
      </trkpt>
      <trkpt lat="43.42788" lon="1.47354">
        <ele>297.5328</ele>
        <time>2018-11-17T09:29:21Z</time>
      </trkpt>
      <trkpt lat="43.42781" lon="1.47345">
        <ele>297.06546</ele>
        <time>2018-11-17T09:29:28Z</time>
      </trkpt>
      <trkpt lat="43.42772" lon="1.47337">
        <ele>296.28867</ele>
        <time>2018-11-17T09:29:37Z</time>
      </trkpt>
      <trkpt lat="43.42764" lon="1.47329">
        <ele>295.6937</ele>
        <time>2018-11-17T09:29:45Z</time>
      </trkpt>
      <trkpt lat="43.42755" lon="1.47322">
        <ele>294.86108</ele>
        <time>2018-11-17T09:29:53Z</time>
      </trkpt>
      <trkpt lat="43.42745" lon="1.47315">
        <ele>292.99792</ele>
        <time>2018-11-17T09:30:05Z</time>
      </trkpt>
      <trkpt lat="43.42735" lon="1.47309">
        <ele>291.8956</ele>
        <time>2018-11-17T09:30:14Z</time>
      </trkpt>
      <trkpt lat="43.42725" lon="1.47305">
        <ele>291.24216</ele>
        <time>2018-11-17T09:30:23Z</time>
      </trkpt>
      <trkpt lat="43.42719" lon="1.47295">
        <ele>290.47287</ele>
        <time>2018-11-17T09:30:36Z</time>
      </trkpt>
      <trkpt lat="43.42713" lon="1.47285">
        <ele>290.70724</ele>
        <time>2018-11-17T09:30:43Z</time>
      </trkpt>
      <trkpt lat="43.42711" lon="1.47273">
        <ele>290.66833</ele>
        <time>2018-11-17T09:30:48Z</time>
      </trkpt>
      <trkpt lat="43.42712" lon="1.4726">
        <ele>290.53638</ele>
        <time>2018-11-17T09:30:54Z</time>
      </trkpt>
      <trkpt lat="43.42716" lon="1.47246">
        <ele>290.57684</ele>
        <time>2018-11-17T09:31:01Z</time>
      </trkpt>
      <trkpt lat="43.42721" lon="1.47231">
        <ele>289.95724</ele>
        <time>2018-11-17T09:31:10Z</time>
      </trkpt>
      <trkpt lat="43.42725" lon="1.4722">
        <ele>289.59784</ele>
        <time>2018-11-17T09:31:16Z</time>
      </trkpt>
      <trkpt lat="43.42729" lon="1.47208">
        <ele>289.45398</ele>
        <time>2018-11-17T09:31:23Z</time>
      </trkpt>
      <trkpt lat="43.42733" lon="1.47193">
        <ele>289.54346</ele>
        <time>2018-11-17T09:31:30Z</time>
      </trkpt>
      <trkpt lat="43.42736" lon="1.4718">
        <ele>289.75723</ele>
        <time>2018-11-17T09:31:37Z</time>
      </trkpt>
      <trkpt lat="43.42738" lon="1.47168">
        <ele>289.82727</ele>
        <time>2018-11-17T09:31:44Z</time>
      </trkpt>
      <trkpt lat="43.4274" lon="1.47153">
        <ele>289.73746</ele>
        <time>2018-11-17T09:31:50Z</time>
      </trkpt>
      <trkpt lat="43.42742" lon="1.47138">
        <ele>289.15518</ele>
        <time>2018-11-17T09:31:58Z</time>
      </trkpt>
      <trkpt lat="43.42744" lon="1.47123">
        <ele>288.65244</ele>
        <time>2018-11-17T09:32:07Z</time>
      </trkpt>
      <trkpt lat="43.42745" lon="1.47111">
        <ele>288.2734</ele>
        <time>2018-11-17T09:32:14Z</time>
      </trkpt>
      <trkpt lat="43.42748" lon="1.47099">
        <ele>287.78958</ele>
        <time>2018-11-17T09:32:21Z</time>
      </trkpt>
      <trkpt lat="43.4275" lon="1.47086">
        <ele>287.6398</ele>
        <time>2018-11-17T09:32:27Z</time>
      </trkpt>
      <trkpt lat="43.42752" lon="1.4707">
        <ele>287.74994</ele>
        <time>2018-11-17T09:32:35Z</time>
      </trkpt>
      <trkpt lat="43.42754" lon="1.47055">
        <ele>287.61716</ele>
        <time>2018-11-17T09:32:43Z</time>
      </trkpt>
      <trkpt lat="43.42756" lon="1.47043">
        <ele>287.69952</ele>
        <time>2018-11-17T09:32:50Z</time>
      </trkpt>
      <trkpt lat="43.4276" lon="1.4703">
        <ele>287.12033</ele>
        <time>2018-11-17T09:32:58Z</time>
      </trkpt>
      <trkpt lat="43.42764" lon="1.47016">
        <ele>287.05737</ele>
        <time>2018-11-17T09:33:07Z</time>
      </trkpt>
      <trkpt lat="43.42769" lon="1.47001">
        <ele>286.7848</ele>
        <time>2018-11-17T09:33:16Z</time>
      </trkpt>
      <trkpt lat="43.4277" lon="1.46988">
        <ele>286.69626</ele>
        <time>2018-11-17T09:33:22Z</time>
      </trkpt>
      <trkpt lat="43.42774" lon="1.46975">
        <ele>286.49863</ele>
        <time>2018-11-17T09:33:28Z</time>
      </trkpt>
      <trkpt lat="43.42776" lon="1.46962">
        <ele>286.48654</ele>
        <time>2018-11-17T09:33:38Z</time>
      </trkpt>
      <trkpt lat="43.42778" lon="1.46949">
        <ele>286.52222</ele>
        <time>2018-11-17T09:33:47Z</time>
      </trkpt>
      <trkpt lat="43.4278" lon="1.46935">
        <ele>286.2765</ele>
        <time>2018-11-17T09:33:54Z</time>
      </trkpt>
      <trkpt lat="43.42783" lon="1.46923">
        <ele>285.7101</ele>
        <time>2018-11-17T09:34:01Z</time>
      </trkpt>
      <trkpt lat="43.42786" lon="1.46911">
        <ele>285.49127</ele>
        <time>2018-11-17T09:34:07Z</time>
      </trkpt>
      <trkpt lat="43.42788" lon="1.46895">
        <ele>284.736</ele>
        <time>2018-11-17T09:34:17Z</time>
      </trkpt>
      <trkpt lat="43.4279" lon="1.46882">
        <ele>284.5665</ele>
        <time>2018-11-17T09:34:24Z</time>
      </trkpt>
      <trkpt lat="43.42791" lon="1.46868">
        <ele>284.2178</ele>
        <time>2018-11-17T09:34:33Z</time>
      </trkpt>
      <trkpt lat="43.42793" lon="1.46855">
        <ele>283.37045</ele>
        <time>2018-11-17T09:34:40Z</time>
      </trkpt>
      <trkpt lat="43.42795" lon="1.46843">
        <ele>282.73663</ele>
        <time>2018-11-17T09:34:48Z</time>
      </trkpt>
      <trkpt lat="43.42796" lon="1.4683">
        <ele>282.02304</ele>
        <time>2018-11-17T09:34:57Z</time>
      </trkpt>
      <trkpt lat="43.42796" lon="1.46815">
        <ele>280.5975</ele>
        <time>2018-11-17T09:35:06Z</time>
      </trkpt>
      <trkpt lat="43.42796" lon="1.46802">
        <ele>279.3977</ele>
        <time>2018-11-17T09:35:12Z</time>
      </trkpt>
      <trkpt lat="43.42799" lon="1.46789">
        <ele>278.41522</ele>
        <time>2018-11-17T09:35:19Z</time>
      </trkpt>
      <trkpt lat="43.42802" lon="1.46776">
        <ele>278.1421</ele>
        <time>2018-11-17T09:35:25Z</time>
      </trkpt>
      <trkpt lat="43.42801" lon="1.46763">
        <ele>277.77863</ele>
        <time>2018-11-17T09:35:32Z</time>
      </trkpt>
      <trkpt lat="43.42803" lon="1.46751">
        <ele>277.26828</ele>
        <time>2018-11-17T09:35:38Z</time>
      </trkpt>
      <trkpt lat="43.42803" lon="1.46737">
        <ele>276.3217</ele>
        <time>2018-11-17T09:35:46Z</time>
      </trkpt>
      <trkpt lat="43.42803" lon="1.46723">
        <ele>275.73413</ele>
        <time>2018-11-17T09:35:53Z</time>
      </trkpt>
      <trkpt lat="43.42803" lon="1.46709">
        <ele>275.4881</ele>
        <time>2018-11-17T09:36:01Z</time>
      </trkpt>
      <trkpt lat="43.42804" lon="1.46696">
        <ele>275.63593</ele>
        <time>2018-11-17T09:36:08Z</time>
      </trkpt>
      <trkpt lat="43.42806" lon="1.46683">
        <ele>275.14575</ele>
        <time>2018-11-17T09:36:17Z</time>
      </trkpt>
      <trkpt lat="43.42809" lon="1.46669">
        <ele>275.04907</ele>
        <time>2018-11-17T09:36:23Z</time>
      </trkpt>
      <trkpt lat="43.42811" lon="1.46656">
        <ele>275.09723</ele>
        <time>2018-11-17T09:36:31Z</time>
      </trkpt>
      <trkpt lat="43.42814" lon="1.46642">
        <ele>274.2874</ele>
        <time>2018-11-17T09:36:41Z</time>
      </trkpt>
      <trkpt lat="43.42815" lon="1.4663">
        <ele>273.0621</ele>
        <time>2018-11-17T09:36:49Z</time>
      </trkpt>
      <trkpt lat="43.42818" lon="1.46616">
        <ele>271.89355</ele>
        <time>2018-11-17T09:36:58Z</time>
      </trkpt>
      <trkpt lat="43.4282" lon="1.46602">
        <ele>271.07962</ele>
        <time>2018-11-17T09:37:06Z</time>
      </trkpt>
      <trkpt lat="43.42823" lon="1.46588">
        <ele>270.52252</ele>
        <time>2018-11-17T09:37:14Z</time>
      </trkpt>
      <trkpt lat="43.42826" lon="1.46576">
        <ele>270.2521</ele>
        <time>2018-11-17T09:37:20Z</time>
      </trkpt>
      <trkpt lat="43.42829" lon="1.46564">
        <ele>270.29846</ele>
        <time>2018-11-17T09:37:29Z</time>
      </trkpt>
      <trkpt lat="43.42833" lon="1.46549">
        <ele>269.95163</ele>
        <time>2018-11-17T09:37:38Z</time>
      </trkpt>
      <trkpt lat="43.42835" lon="1.46537">
        <ele>269.79932</ele>
        <time>2018-11-17T09:37:44Z</time>
      </trkpt>
      <trkpt lat="43.42838" lon="1.46524">
        <ele>269.6983</ele>
        <time>2018-11-17T09:37:53Z</time>
      </trkpt>
      <trkpt lat="43.42841" lon="1.46512">
        <ele>269.44434</ele>
        <time>2018-11-17T09:38:00Z</time>
      </trkpt>
      <trkpt lat="43.42844" lon="1.46498">
        <ele>269.04834</ele>
        <time>2018-11-17T09:38:09Z</time>
      </trkpt>
      <trkpt lat="43.42845" lon="1.46485">
        <ele>268.48172</ele>
        <time>2018-11-17T09:38:15Z</time>
      </trkpt>
      <trkpt lat="43.42848" lon="1.46473">
        <ele>268.31595</ele>
        <time>2018-11-17T09:38:24Z</time>
      </trkpt>
      <trkpt lat="43.42851" lon="1.46461">
        <ele>268.0012</ele>
        <time>2018-11-17T09:38:31Z</time>
      </trkpt>
      <trkpt lat="43.42852" lon="1.46448">
        <ele>267.5592</ele>
        <time>2018-11-17T09:38:38Z</time>
      </trkpt>
      <trkpt lat="43.42856" lon="1.46434">
        <ele>266.41403</ele>
        <time>2018-11-17T09:38:48Z</time>
      </trkpt>
      <trkpt lat="43.42859" lon="1.46422">
        <ele>265.8985</ele>
        <time>2018-11-17T09:38:55Z</time>
      </trkpt>
      <trkpt lat="43.4286" lon="1.46409">
        <ele>265.56967</ele>
        <time>2018-11-17T09:39:02Z</time>
      </trkpt>
      <trkpt lat="43.42863" lon="1.46394">
        <ele>264.8777</ele>
        <time>2018-11-17T09:39:11Z</time>
      </trkpt>
      <trkpt lat="43.42865" lon="1.46381">
        <ele>264.12268</ele>
        <time>2018-11-17T09:39:19Z</time>
      </trkpt>
      <trkpt lat="43.4287" lon="1.46369">
        <ele>263.76056</ele>
        <time>2018-11-17T09:39:28Z</time>
      </trkpt>
      <trkpt lat="43.42874" lon="1.46356">
        <ele>263.80533</ele>
        <time>2018-11-17T09:39:37Z</time>
      </trkpt>
      <trkpt lat="43.42878" lon="1.46344">
        <ele>262.8586</ele>
        <time>2018-11-17T09:39:47Z</time>
      </trkpt>
      <trkpt lat="43.42877" lon="1.46331">
        <ele>261.08636</ele>
        <time>2018-11-17T09:39:56Z</time>
      </trkpt>
      <trkpt lat="43.42867" lon="1.46327">
        <ele>260.33325</ele>
        <time>2018-11-17T09:40:02Z</time>
      </trkpt>
      <trkpt lat="43.42858" lon="1.46322">
        <ele>259.68558</ele>
        <time>2018-11-17T09:40:11Z</time>
      </trkpt>
      <trkpt lat="43.42851" lon="1.46314">
        <ele>257.87064</ele>
        <time>2018-11-17T09:40:21Z</time>
      </trkpt>
      <trkpt lat="43.42841" lon="1.46307">
        <ele>256.08743</ele>
        <time>2018-11-17T09:40:28Z</time>
      </trkpt>
      <trkpt lat="43.42832" lon="1.463">
        <ele>253.5731</ele>
        <time>2018-11-17T09:40:37Z</time>
      </trkpt>
      <trkpt lat="43.42823" lon="1.46296">
        <ele>252.15726</ele>
        <time>2018-11-17T09:40:45Z</time>
      </trkpt>
      <trkpt lat="43.42814" lon="1.46289">
        <ele>250.21109</ele>
        <time>2018-11-17T09:40:55Z</time>
      </trkpt>
      <trkpt lat="43.42804" lon="1.46281">
        <ele>248.61484</ele>
        <time>2018-11-17T09:41:04Z</time>
      </trkpt>
      <trkpt lat="43.42795" lon="1.46274">
        <ele>247.67288</ele>
        <time>2018-11-17T09:41:12Z</time>
      </trkpt>
      <trkpt lat="43.42787" lon="1.46268">
        <ele>246.13936</ele>
        <time>2018-11-17T09:41:21Z</time>
      </trkpt>
      <trkpt lat="43.42778" lon="1.46263">
        <ele>244.62073</ele>
        <time>2018-11-17T09:41:29Z</time>
      </trkpt>
      <trkpt lat="43.42769" lon="1.46257">
        <ele>242.44016</ele>
        <time>2018-11-17T09:41:36Z</time>
      </trkpt>
      <trkpt lat="43.42761" lon="1.46251">
        <ele>240.6246</ele>
        <time>2018-11-17T09:41:44Z</time>
      </trkpt>
      <trkpt lat="43.42752" lon="1.46246">
        <ele>239.47125</ele>
        <time>2018-11-17T09:41:53Z</time>
      </trkpt>
      <trkpt lat="43.42744" lon="1.46241">
        <ele>238.384</ele>
        <time>2018-11-17T09:42:00Z</time>
      </trkpt>
      <trkpt lat="43.42736" lon="1.46235">
        <ele>237.40993</ele>
        <time>2018-11-17T09:42:06Z</time>
      </trkpt>
      <trkpt lat="43.42727" lon="1.46229">
        <ele>236.1349</ele>
        <time>2018-11-17T09:42:14Z</time>
      </trkpt>
      <trkpt lat="43.42718" lon="1.46224">
        <ele>235.07013</ele>
        <time>2018-11-17T09:42:21Z</time>
      </trkpt>
      <trkpt lat="43.42711" lon="1.46216">
        <ele>233.90573</ele>
        <time>2018-11-17T09:42:31Z</time>
      </trkpt>
      <trkpt lat="43.42712" lon="1.46202">
        <ele>233.49738</ele>
        <time>2018-11-17T09:42:37Z</time>
      </trkpt>
      <trkpt lat="43.42717" lon="1.46191">
        <ele>233.449</ele>
        <time>2018-11-17T09:42:44Z</time>
      </trkpt>
      <trkpt lat="43.4272" lon="1.46179">
        <ele>233.69809</ele>
        <time>2018-11-17T09:42:49Z</time>
      </trkpt>
      <trkpt lat="43.42723" lon="1.46166">
        <ele>233.89755</ele>
        <time>2018-11-17T09:42:56Z</time>
      </trkpt>
      <trkpt lat="43.42727" lon="1.46154">
        <ele>234.28738</ele>
        <time>2018-11-17T09:43:03Z</time>
      </trkpt>
      <trkpt lat="43.42729" lon="1.46142">
        <ele>234.55495</ele>
        <time>2018-11-17T09:43:10Z</time>
      </trkpt>
      <trkpt lat="43.42731" lon="1.46129">
        <ele>234.90213</ele>
        <time>2018-11-17T09:43:18Z</time>
      </trkpt>
      <trkpt lat="43.42733" lon="1.46116">
        <ele>234.29024</ele>
        <time>2018-11-17T09:43:27Z</time>
      </trkpt>
      <trkpt lat="43.42738" lon="1.46104">
        <ele>233.94133</ele>
        <time>2018-11-17T09:43:37Z</time>
      </trkpt>
      <trkpt lat="43.42744" lon="1.46095">
        <ele>232.9337</ele>
        <time>2018-11-17T09:43:52Z</time>
      </trkpt>
      <trkpt lat="43.42748" lon="1.46082">
        <ele>232.27498</ele>
        <time>2018-11-17T09:44:00Z</time>
      </trkpt>
      <trkpt lat="43.42751" lon="1.4607">
        <ele>231.31567</ele>
        <time>2018-11-17T09:44:10Z</time>
      </trkpt>
      <trkpt lat="43.42752" lon="1.46056">
        <ele>230.85098</ele>
        <time>2018-11-17T09:44:15Z</time>
      </trkpt>
      <trkpt lat="43.42755" lon="1.46043">
        <ele>230.77654</ele>
        <time>2018-11-17T09:44:22Z</time>
      </trkpt>
      <trkpt lat="43.42757" lon="1.46031">
        <ele>231.27501</ele>
        <time>2018-11-17T09:44:29Z</time>
      </trkpt>
      <trkpt lat="43.42754" lon="1.46016">
        <ele>231.38617</ele>
        <time>2018-11-17T09:44:33Z</time>
      </trkpt>
      <trkpt lat="43.42754" lon="1.46003">
        <ele>231.55981</ele>
        <time>2018-11-17T09:44:38Z</time>
      </trkpt>
      <trkpt lat="43.42756" lon="1.4599">
        <ele>231.6517</ele>
        <time>2018-11-17T09:44:46Z</time>
      </trkpt>
      <trkpt lat="43.42759" lon="1.45978">
        <ele>231.89642</ele>
        <time>2018-11-17T09:44:51Z</time>
      </trkpt>
      <trkpt lat="43.42761" lon="1.45964">
        <ele>232.0739</ele>
        <time>2018-11-17T09:44:59Z</time>
      </trkpt>
      <trkpt lat="43.42763" lon="1.4595">
        <ele>231.84502</ele>
        <time>2018-11-17T09:45:08Z</time>
      </trkpt>
      <trkpt lat="43.42769" lon="1.4594">
        <ele>231.61194</ele>
        <time>2018-11-17T09:45:17Z</time>
      </trkpt>
      <trkpt lat="43.42768" lon="1.45927">
        <ele>231.53049</ele>
        <time>2018-11-17T09:45:24Z</time>
      </trkpt>
      <trkpt lat="43.42773" lon="1.45915">
        <ele>231.44093</ele>
        <time>2018-11-17T09:45:32Z</time>
      </trkpt>
      <trkpt lat="43.42778" lon="1.45903">
        <ele>230.60025</ele>
        <time>2018-11-17T09:45:40Z</time>
      </trkpt>
      <trkpt lat="43.4278" lon="1.45889">
        <ele>230.36185</ele>
        <time>2018-11-17T09:45:47Z</time>
      </trkpt>
      <trkpt lat="43.42783" lon="1.45877">
        <ele>229.74852</ele>
        <time>2018-11-17T09:45:55Z</time>
      </trkpt>
      <trkpt lat="43.42785" lon="1.45864">
        <ele>229.37732</ele>
        <time>2018-11-17T09:46:01Z</time>
      </trkpt>
      <trkpt lat="43.42788" lon="1.45851">
        <ele>229.32771</ele>
        <time>2018-11-17T09:46:07Z</time>
      </trkpt>
      <trkpt lat="43.42793" lon="1.4584">
        <ele>229.42091</ele>
        <time>2018-11-17T09:46:13Z</time>
      </trkpt>
      <trkpt lat="43.42796" lon="1.45829">
        <ele>229.36472</ele>
        <time>2018-11-17T09:46:18Z</time>
      </trkpt>
      <trkpt lat="43.42798" lon="1.45817">
        <ele>229.07356</ele>
        <time>2018-11-17T09:46:26Z</time>
      </trkpt>
      <trkpt lat="43.428" lon="1.45803">
        <ele>228.4607</ele>
        <time>2018-11-17T09:46:34Z</time>
      </trkpt>
      <trkpt lat="43.42802" lon="1.45789">
        <ele>228.19281</ele>
        <time>2018-11-17T09:46:41Z</time>
      </trkpt>
      <trkpt lat="43.42804" lon="1.45776">
        <ele>228.05722</ele>
        <time>2018-11-17T09:46:47Z</time>
      </trkpt>
      <trkpt lat="43.42807" lon="1.45764">
        <ele>227.33629</ele>
        <time>2018-11-17T09:46:54Z</time>
      </trkpt>
      <trkpt lat="43.42809" lon="1.4575">
        <ele>226.93199</ele>
        <time>2018-11-17T09:47:01Z</time>
      </trkpt>
      <trkpt lat="43.42812" lon="1.45737">
        <ele>226.57295</ele>
        <time>2018-11-17T09:47:07Z</time>
      </trkpt>
      <trkpt lat="43.42817" lon="1.45725">
        <ele>226.11716</ele>
        <time>2018-11-17T09:47:13Z</time>
      </trkpt>
      <trkpt lat="43.4282" lon="1.45712">
        <ele>226.00365</ele>
        <time>2018-11-17T09:47:22Z</time>
      </trkpt>
      <trkpt lat="43.42824" lon="1.45701">
        <ele>226.0472</ele>
        <time>2018-11-17T09:47:28Z</time>
      </trkpt>
      <trkpt lat="43.42828" lon="1.45687">
        <ele>226.39236</ele>
        <time>2018-11-17T09:47:36Z</time>
      </trkpt>
      <trkpt lat="43.42831" lon="1.45672">
        <ele>226.9642</ele>
        <time>2018-11-17T09:47:43Z</time>
      </trkpt>
      <trkpt lat="43.42835" lon="1.45659">
        <ele>228.08327</ele>
        <time>2018-11-17T09:47:51Z</time>
      </trkpt>
      <trkpt lat="43.42838" lon="1.45647">
        <ele>228.45065</ele>
        <time>2018-11-17T09:48:00Z</time>
      </trkpt>
      <trkpt lat="43.42841" lon="1.45633">
        <ele>228.85683</ele>
        <time>2018-11-17T09:48:10Z</time>
      </trkpt>
      <trkpt lat="43.42844" lon="1.45619">
        <ele>229.22493</ele>
        <time>2018-11-17T09:48:16Z</time>
      </trkpt>
      <trkpt lat="43.42846" lon="1.45606">
        <ele>229.56335</ele>
        <time>2018-11-17T09:48:21Z</time>
      </trkpt>
      <trkpt lat="43.42849" lon="1.45594">
        <ele>230.4855</ele>
        <time>2018-11-17T09:48:29Z</time>
      </trkpt>
      <trkpt lat="43.42854" lon="1.45583">
        <ele>230.49136</ele>
        <time>2018-11-17T09:48:36Z</time>
      </trkpt>
      <trkpt lat="43.42856" lon="1.4557">
        <ele>230.91116</ele>
        <time>2018-11-17T09:48:43Z</time>
      </trkpt>
      <trkpt lat="43.42857" lon="1.45555">
        <ele>231.62128</ele>
        <time>2018-11-17T09:48:50Z</time>
      </trkpt>
      <trkpt lat="43.4286" lon="1.45542">
        <ele>231.9418</ele>
        <time>2018-11-17T09:48:56Z</time>
      </trkpt>
      <trkpt lat="43.42864" lon="1.45531">
        <ele>232.6384</ele>
        <time>2018-11-17T09:49:05Z</time>
      </trkpt>
      <trkpt lat="43.42865" lon="1.45518">
        <ele>233.26543</ele>
        <time>2018-11-17T09:49:12Z</time>
      </trkpt>
      <trkpt lat="43.42865" lon="1.45504">
        <ele>233.63918</ele>
        <time>2018-11-17T09:49:17Z</time>
      </trkpt>
      <trkpt lat="43.42868" lon="1.45491">
        <ele>233.65897</ele>
        <time>2018-11-17T09:49:24Z</time>
      </trkpt>
      <trkpt lat="43.4287" lon="1.45478">
        <ele>234.0182</ele>
        <time>2018-11-17T09:49:31Z</time>
      </trkpt>
      <trkpt lat="43.42873" lon="1.45465">
        <ele>234.62468</ele>
        <time>2018-11-17T09:49:38Z</time>
      </trkpt>
      <trkpt lat="43.42875" lon="1.45452">
        <ele>235.29337</ele>
        <time>2018-11-17T09:49:46Z</time>
      </trkpt>
      <trkpt lat="43.42879" lon="1.4544">
        <ele>235.60103</ele>
        <time>2018-11-17T09:49:53Z</time>
      </trkpt>
      <trkpt lat="43.42883" lon="1.45427">
        <ele>235.6534</ele>
        <time>2018-11-17T09:50:01Z</time>
      </trkpt>
      <trkpt lat="43.42888" lon="1.45417">
        <ele>235.16794</ele>
        <time>2018-11-17T09:50:07Z</time>
      </trkpt>
      <trkpt lat="43.42894" lon="1.45407">
        <ele>234.35057</ele>
        <time>2018-11-17T09:50:15Z</time>
      </trkpt>
      <trkpt lat="43.42898" lon="1.45395">
        <ele>233.98537</ele>
        <time>2018-11-17T09:50:22Z</time>
      </trkpt>
      <trkpt lat="43.42903" lon="1.45385">
        <ele>234.03857</ele>
        <time>2018-11-17T09:50:34Z</time>
      </trkpt>
      <trkpt lat="43.42908" lon="1.45372">
        <ele>234.23592</ele>
        <time>2018-11-17T09:50:41Z</time>
      </trkpt>
      <trkpt lat="43.42913" lon="1.45361">
        <ele>234.06966</ele>
        <time>2018-11-17T09:50:48Z</time>
      </trkpt>
      <trkpt lat="43.42918" lon="1.45349">
        <ele>233.74551</ele>
        <time>2018-11-17T09:50:55Z</time>
      </trkpt>
      <trkpt lat="43.42923" lon="1.45338">
        <ele>233.51166</ele>
        <time>2018-11-17T09:51:02Z</time>
      </trkpt>
      <trkpt lat="43.4293" lon="1.45329">
        <ele>233.00922</ele>
        <time>2018-11-17T09:51:08Z</time>
      </trkpt>
      <trkpt lat="43.42937" lon="1.45321">
        <ele>232.85191</ele>
        <time>2018-11-17T09:51:16Z</time>
      </trkpt>
      <trkpt lat="43.42944" lon="1.4531">
        <ele>232.6365</ele>
        <time>2018-11-17T09:51:24Z</time>
      </trkpt>
      <trkpt lat="43.4295" lon="1.453">
        <ele>232.70953</ele>
        <time>2018-11-17T09:51:32Z</time>
      </trkpt>
      <trkpt lat="43.42955" lon="1.45288">
        <ele>232.74464</ele>
        <time>2018-11-17T09:51:39Z</time>
      </trkpt>
      <trkpt lat="43.4296" lon="1.45277">
        <ele>233.19719</ele>
        <time>2018-11-17T09:51:46Z</time>
      </trkpt>
      <trkpt lat="43.42965" lon="1.45265">
        <ele>233.20122</ele>
        <time>2018-11-17T09:51:54Z</time>
      </trkpt>
      <trkpt lat="43.42971" lon="1.45255">
        <ele>233.45886</ele>
        <time>2018-11-17T09:52:02Z</time>
      </trkpt>
      <trkpt lat="43.42979" lon="1.45245">
        <ele>233.87964</ele>
        <time>2018-11-17T09:52:09Z</time>
      </trkpt>
      <trkpt lat="43.42984" lon="1.45234">
        <ele>234.04185</ele>
        <time>2018-11-17T09:52:18Z</time>
      </trkpt>
      <trkpt lat="43.42989" lon="1.45222">
        <ele>234.04501</ele>
        <time>2018-11-17T09:52:26Z</time>
      </trkpt>
      <trkpt lat="43.42993" lon="1.4521">
        <ele>234.22748</ele>
        <time>2018-11-17T09:52:33Z</time>
      </trkpt>
      <trkpt lat="43.42997" lon="1.45198">
        <ele>233.46416</ele>
        <time>2018-11-17T09:52:39Z</time>
      </trkpt>
      <trkpt lat="43.43002" lon="1.45188">
        <ele>232.37497</ele>
        <time>2018-11-17T09:52:46Z</time>
      </trkpt>
      <trkpt lat="43.43009" lon="1.45178">
        <ele>231.9116</ele>
        <time>2018-11-17T09:52:54Z</time>
      </trkpt>
      <trkpt lat="43.43012" lon="1.45167">
        <ele>232.3313</ele>
        <time>2018-11-17T09:53:01Z</time>
      </trkpt>
      <trkpt lat="43.43012" lon="1.45166">
        <ele>232.45155</ele>
        <time>2018-11-17T09:53:06Z</time>
      </trkpt>
      <trkpt lat="43.43012" lon="1.45166">
        <ele>232.45155</ele>
        <time>2018-11-17T09:53:06Z</time>
      </trkpt>
      <trkpt lat="43.43012" lon="1.45148">
        <ele>231.6351</ele>
        <time>2018-11-17T09:53:54Z</time>
      </trkpt>
      <trkpt lat="43.43018" lon="1.45138">
        <ele>231.90662</ele>
        <time>2018-11-17T09:54:03Z</time>
      </trkpt>
      <trkpt lat="43.43021" lon="1.45124">
        <ele>232.39124</ele>
        <time>2018-11-17T09:54:09Z</time>
      </trkpt>
      <trkpt lat="43.43026" lon="1.45112">
        <ele>233.01299</ele>
        <time>2018-11-17T09:54:15Z</time>
      </trkpt>
      <trkpt lat="43.43031" lon="1.451">
        <ele>233.86937</ele>
        <time>2018-11-17T09:54:21Z</time>
      </trkpt>
      <trkpt lat="43.43036" lon="1.45088">
        <ele>234.95224</ele>
        <time>2018-11-17T09:54:28Z</time>
      </trkpt>
      <trkpt lat="43.43041" lon="1.45077">
        <ele>235.51442</ele>
        <time>2018-11-17T09:54:34Z</time>
      </trkpt>
      <trkpt lat="43.43046" lon="1.45067">
        <ele>236.11037</ele>
        <time>2018-11-17T09:54:43Z</time>
      </trkpt>
      <trkpt lat="43.4305" lon="1.45055">
        <ele>236.27333</ele>
        <time>2018-11-17T09:54:49Z</time>
      </trkpt>
      <trkpt lat="43.43055" lon="1.45045">
        <ele>236.28505</ele>
        <time>2018-11-17T09:54:55Z</time>
      </trkpt>
      <trkpt lat="43.43061" lon="1.45035">
        <ele>236.31056</ele>
        <time>2018-11-17T09:55:03Z</time>
      </trkpt>
      <trkpt lat="43.43067" lon="1.45026">
        <ele>236.17645</ele>
        <time>2018-11-17T09:55:11Z</time>
      </trkpt>
      <trkpt lat="43.43073" lon="1.45014">
        <ele>235.98466</ele>
        <time>2018-11-17T09:55:17Z</time>
      </trkpt>
      <trkpt lat="43.43078" lon="1.45002">
        <ele>236.03201</ele>
        <time>2018-11-17T09:55:24Z</time>
      </trkpt>
      <trkpt lat="43.43083" lon="1.44991">
        <ele>235.9629</ele>
        <time>2018-11-17T09:55:30Z</time>
      </trkpt>
      <trkpt lat="43.43089" lon="1.4498">
        <ele>236.01712</ele>
        <time>2018-11-17T09:55:37Z</time>
      </trkpt>
      <trkpt lat="43.43095" lon="1.4497">
        <ele>236.18944</ele>
        <time>2018-11-17T09:55:44Z</time>
      </trkpt>
      <trkpt lat="43.431" lon="1.44958">
        <ele>236.47647</ele>
        <time>2018-11-17T09:55:50Z</time>
      </trkpt>
      <trkpt lat="43.43107" lon="1.44948">
        <ele>237.04771</ele>
        <time>2018-11-17T09:55:58Z</time>
      </trkpt>
      <trkpt lat="43.43113" lon="1.44938">
        <ele>237.18668</ele>
        <time>2018-11-17T09:56:04Z</time>
      </trkpt>
      <trkpt lat="43.4312" lon="1.4493">
        <ele>237.3106</ele>
        <time>2018-11-17T09:56:11Z</time>
      </trkpt>
      <trkpt lat="43.43126" lon="1.44919">
        <ele>237.57242</ele>
        <time>2018-11-17T09:56:18Z</time>
      </trkpt>
      <trkpt lat="43.4313" lon="1.44908">
        <ele>237.71968</ele>
        <time>2018-11-17T09:56:24Z</time>
      </trkpt>
      <trkpt lat="43.43136" lon="1.44897">
        <ele>237.79987</ele>
        <time>2018-11-17T09:56:32Z</time>
      </trkpt>
      <trkpt lat="43.4314" lon="1.44885">
        <ele>237.88196</ele>
        <time>2018-11-17T09:56:39Z</time>
      </trkpt>
      <trkpt lat="43.43145" lon="1.44873">
        <ele>238.26569</ele>
        <time>2018-11-17T09:56:46Z</time>
      </trkpt>
      <trkpt lat="43.4315" lon="1.44861">
        <ele>238.87811</ele>
        <time>2018-11-17T09:56:54Z</time>
      </trkpt>
      <trkpt lat="43.43157" lon="1.44852">
        <ele>239.11272</ele>
        <time>2018-11-17T09:57:01Z</time>
      </trkpt>
      <trkpt lat="43.43164" lon="1.44842">
        <ele>239.33397</ele>
        <time>2018-11-17T09:57:08Z</time>
      </trkpt>
      <trkpt lat="43.43171" lon="1.44832">
        <ele>239.56693</ele>
        <time>2018-11-17T09:57:17Z</time>
      </trkpt>
      <trkpt lat="43.43179" lon="1.44824">
        <ele>239.72812</ele>
        <time>2018-11-17T09:57:24Z</time>
      </trkpt>
      <trkpt lat="43.43187" lon="1.44816">
        <ele>239.45198</ele>
        <time>2018-11-17T09:57:31Z</time>
      </trkpt>
      <trkpt lat="43.43195" lon="1.44806">
        <ele>238.87071</ele>
        <time>2018-11-17T09:57:39Z</time>
      </trkpt>
      <trkpt lat="43.43202" lon="1.44796">
        <ele>238.78267</ele>
        <time>2018-11-17T09:57:46Z</time>
      </trkpt>
      <trkpt lat="43.43208" lon="1.44787">
        <ele>238.9823</ele>
        <time>2018-11-17T09:57:54Z</time>
      </trkpt>
      <trkpt lat="43.43215" lon="1.44778">
        <ele>238.74504</ele>
        <time>2018-11-17T09:58:01Z</time>
      </trkpt>
      <trkpt lat="43.43221" lon="1.44769">
        <ele>238.39778</ele>
        <time>2018-11-17T09:58:07Z</time>
      </trkpt>
      <trkpt lat="43.43229" lon="1.44765">
        <ele>238.32042</ele>
        <time>2018-11-17T09:58:14Z</time>
      </trkpt>
      <trkpt lat="43.43238" lon="1.44761">
        <ele>238.5708</ele>
        <time>2018-11-17T09:58:20Z</time>
      </trkpt>
      <trkpt lat="43.43244" lon="1.44751">
        <ele>238.7572</ele>
        <time>2018-11-17T09:58:30Z</time>
      </trkpt>
      <trkpt lat="43.43253" lon="1.44746">
        <ele>238.85907</ele>
        <time>2018-11-17T09:58:36Z</time>
      </trkpt>
      <trkpt lat="43.4326" lon="1.44738">
        <ele>239.33932</ele>
        <time>2018-11-17T09:58:44Z</time>
      </trkpt>
      <trkpt lat="43.43269" lon="1.4473">
        <ele>239.78445</ele>
        <time>2018-11-17T09:58:53Z</time>
      </trkpt>
      <trkpt lat="43.43275" lon="1.44721">
        <ele>240.29565</ele>
        <time>2018-11-17T09:59:00Z</time>
      </trkpt>
      <trkpt lat="43.43278" lon="1.44709">
        <ele>240.9725</ele>
        <time>2018-11-17T09:59:10Z</time>
      </trkpt>
      <trkpt lat="43.43282" lon="1.44696">
        <ele>240.66158</ele>
        <time>2018-11-17T09:59:17Z</time>
      </trkpt>
      <trkpt lat="43.43287" lon="1.44685">
        <ele>240.05135</ele>
        <time>2018-11-17T09:59:23Z</time>
      </trkpt>
      <trkpt lat="43.43292" lon="1.44674">
        <ele>239.65828</ele>
        <time>2018-11-17T09:59:32Z</time>
      </trkpt>
      <trkpt lat="43.43296" lon="1.44662">
        <ele>239.37537</ele>
        <time>2018-11-17T09:59:38Z</time>
      </trkpt>
      <trkpt lat="43.43301" lon="1.44651">
        <ele>238.84695</ele>
        <time>2018-11-17T09:59:47Z</time>
      </trkpt>
      <trkpt lat="43.43306" lon="1.44639">
        <ele>237.64557</ele>
        <time>2018-11-17T09:59:58Z</time>
      </trkpt>
      <trkpt lat="43.43311" lon="1.44627">
        <ele>236.19963</ele>
        <time>2018-11-17T10:00:06Z</time>
      </trkpt>
      <trkpt lat="43.43316" lon="1.44615">
        <ele>234.8843</ele>
        <time>2018-11-17T10:00:14Z</time>
      </trkpt>
      <trkpt lat="43.43321" lon="1.44603">
        <ele>233.72295</ele>
        <time>2018-11-17T10:00:24Z</time>
      </trkpt>
      <trkpt lat="43.43328" lon="1.44595">
        <ele>233.6696</ele>
        <time>2018-11-17T10:00:28Z</time>
      </trkpt>
      <trkpt lat="43.43333" lon="1.44584">
        <ele>233.78346</ele>
        <time>2018-11-17T10:00:31Z</time>
      </trkpt>
      <trkpt lat="43.43342" lon="1.44576">
        <ele>234.2396</ele>
        <time>2018-11-17T10:00:35Z</time>
      </trkpt>
      <trkpt lat="43.43348" lon="1.44566">
        <ele>235.8966</ele>
        <time>2018-11-17T10:00:43Z</time>
      </trkpt>
      <trkpt lat="43.43352" lon="1.44554">
        <ele>236.3227</ele>
        <time>2018-11-17T10:00:54Z</time>
      </trkpt>
      <trkpt lat="43.43355" lon="1.44541">
        <ele>235.88164</ele>
        <time>2018-11-17T10:01:02Z</time>
      </trkpt>
      <trkpt lat="43.43362" lon="1.44531">
        <ele>235.73134</ele>
        <time>2018-11-17T10:01:12Z</time>
      </trkpt>
      <trkpt lat="43.43367" lon="1.44521">
        <ele>235.63489</ele>
        <time>2018-11-17T10:01:18Z</time>
      </trkpt>
      <trkpt lat="43.4337" lon="1.44509">
        <ele>234.88275</ele>
        <time>2018-11-17T10:01:29Z</time>
      </trkpt>
      <trkpt lat="43.43372" lon="1.44497">
        <ele>233.59021</ele>
        <time>2018-11-17T10:01:37Z</time>
      </trkpt>
      <trkpt lat="43.43374" lon="1.44495">
        <ele>233.50583</ele>
        <time>2018-11-17T10:01:43Z</time>
      </trkpt>
      <trkpt lat="43.43374" lon="1.44495">
        <ele>233.50583</ele>
        <time>2018-11-17T10:01:43Z</time>
      </trkpt>
      <trkpt lat="43.43369" lon="1.44484">
        <ele>234.0798</ele>
        <time>2018-11-17T10:03:35Z</time>
      </trkpt>
      <trkpt lat="43.43359" lon="1.44479">
        <ele>233.81602</ele>
        <time>2018-11-17T10:03:43Z</time>
      </trkpt>
      <trkpt lat="43.43351" lon="1.44476">
        <ele>233.3316</ele>
        <time>2018-11-17T10:03:50Z</time>
      </trkpt>
      <trkpt lat="43.43343" lon="1.44467">
        <ele>232.87654</ele>
        <time>2018-11-17T10:04:00Z</time>
      </trkpt>
      <trkpt lat="43.43334" lon="1.4446">
        <ele>232.57813</ele>
        <time>2018-11-17T10:04:06Z</time>
      </trkpt>
      <trkpt lat="43.43326" lon="1.44451">
        <ele>231.48059</ele>
        <time>2018-11-17T10:04:17Z</time>
      </trkpt>
      <trkpt lat="43.43318" lon="1.44446">
        <ele>230.72307</ele>
        <time>2018-11-17T10:04:23Z</time>
      </trkpt>
      <trkpt lat="43.43308" lon="1.44443">
        <ele>229.49094</ele>
        <time>2018-11-17T10:04:32Z</time>
      </trkpt>
      <trkpt lat="43.43307" lon="1.44429">
        <ele>227.27553</ele>
        <time>2018-11-17T10:04:47Z</time>
      </trkpt>
      <trkpt lat="43.43309" lon="1.44417">
        <ele>226.81012</ele>
        <time>2018-11-17T10:04:58Z</time>
      </trkpt>
      <trkpt lat="43.43306" lon="1.44403">
        <ele>227.15955</ele>
        <time>2018-11-17T10:05:16Z</time>
      </trkpt>
      <trkpt lat="43.43303" lon="1.44391">
        <ele>225.74806</ele>
        <time>2018-11-17T10:05:25Z</time>
      </trkpt>
      <trkpt lat="43.43305" lon="1.44377">
        <ele>224.56357</ele>
        <time>2018-11-17T10:05:34Z</time>
      </trkpt>
      <trkpt lat="43.43303" lon="1.44365">
        <ele>224.14014</ele>
        <time>2018-11-17T10:05:43Z</time>
      </trkpt>
      <trkpt lat="43.43301" lon="1.44351">
        <ele>224.44081</ele>
        <time>2018-11-17T10:05:50Z</time>
      </trkpt>
      <trkpt lat="43.433" lon="1.44336">
        <ele>224.71526</ele>
        <time>2018-11-17T10:05:55Z</time>
      </trkpt>
      <trkpt lat="43.43294" lon="1.44321">
        <ele>224.76659</ele>
        <time>2018-11-17T10:05:59Z</time>
      </trkpt>
      <trkpt lat="43.43293" lon="1.44308">
        <ele>224.90253</ele>
        <time>2018-11-17T10:06:04Z</time>
      </trkpt>
      <trkpt lat="43.4329" lon="1.44301">
        <ele>225.19055</ele>
        <time>2018-11-17T10:06:18Z</time>
      </trkpt>
      <trkpt lat="43.4329" lon="1.44301">
        <ele>225.19055</ele>
        <time>2018-11-17T10:06:18Z</time>
      </trkpt>
      <trkpt lat="43.43303" lon="1.44289">
        <ele>227.39827</ele>
        <time>2018-11-17T10:11:41Z</time>
      </trkpt>
      <trkpt lat="43.43299" lon="1.44283">
        <ele>226.63112</ele>
        <time>2018-11-17T10:11:53Z</time>
      </trkpt>
      <trkpt lat="43.43299" lon="1.44283">
        <ele>226.63112</ele>
        <time>2018-11-17T10:11:53Z</time>
      </trkpt>
      <trkpt lat="43.43306" lon="1.44291">
        <ele>227.50545</ele>
        <time>2018-11-17T10:16:23Z</time>
      </trkpt>
      <trkpt lat="43.43316" lon="1.44291">
        <ele>227.11617</ele>
        <time>2018-11-17T10:16:34Z</time>
      </trkpt>
      <trkpt lat="43.43327" lon="1.44294">
        <ele>227.45256</ele>
        <time>2018-11-17T10:16:45Z</time>
      </trkpt>
      <trkpt lat="43.43336" lon="1.443">
        <ele>225.8653</ele>
        <time>2018-11-17T10:16:55Z</time>
      </trkpt>
      <trkpt lat="43.43337" lon="1.44312">
        <ele>224.55266</ele>
        <time>2018-11-17T10:17:01Z</time>
      </trkpt>
      <trkpt lat="43.43338" lon="1.44325">
        <ele>222.63136</ele>
        <time>2018-11-17T10:17:11Z</time>
      </trkpt>
      <trkpt lat="43.43349" lon="1.44331">
        <ele>220.89648</ele>
        <time>2018-11-17T10:17:21Z</time>
      </trkpt>
      <trkpt lat="43.43358" lon="1.44331">
        <ele>220.86166</ele>
        <time>2018-11-17T10:17:30Z</time>
      </trkpt>
      <trkpt lat="43.43366" lon="1.44319">
        <ele>220.93053</ele>
        <time>2018-11-17T10:17:35Z</time>
      </trkpt>
      <trkpt lat="43.43375" lon="1.44318">
        <ele>221.245</ele>
        <time>2018-11-17T10:17:40Z</time>
      </trkpt>
      <trkpt lat="43.43385" lon="1.44322">
        <ele>221.70517</ele>
        <time>2018-11-17T10:17:42Z</time>
      </trkpt>
      <trkpt lat="43.43393" lon="1.44335">
        <ele>222.09563</ele>
        <time>2018-11-17T10:17:45Z</time>
      </trkpt>
      <trkpt lat="43.43403" lon="1.44337">
        <ele>222.40985</ele>
        <time>2018-11-17T10:17:56Z</time>
      </trkpt>
      <trkpt lat="43.43412" lon="1.44343">
        <ele>222.68546</ele>
        <time>2018-11-17T10:17:59Z</time>
      </trkpt>
      <trkpt lat="43.43421" lon="1.44337">
        <ele>223.31273</ele>
        <time>2018-11-17T10:18:10Z</time>
      </trkpt>
      <trkpt lat="43.43428" lon="1.44328">
        <ele>224.02293</ele>
        <time>2018-11-17T10:18:14Z</time>
      </trkpt>
      <trkpt lat="43.43435" lon="1.44313">
        <ele>227.99976</ele>
        <time>2018-11-17T10:18:18Z</time>
      </trkpt>
      <trkpt lat="43.43442" lon="1.44297">
        <ele>230.00932</ele>
        <time>2018-11-17T10:18:20Z</time>
      </trkpt>
      <trkpt lat="43.43447" lon="1.44283">
        <ele>230.56136</ele>
        <time>2018-11-17T10:18:22Z</time>
      </trkpt>
      <trkpt lat="43.43456" lon="1.44267">
        <ele>228.27682</ele>
        <time>2018-11-17T10:18:25Z</time>
      </trkpt>
      <trkpt lat="43.43455" lon="1.44266">
        <ele>227.64268</ele>
        <time>2018-11-17T10:18:32Z</time>
      </trkpt>
      <trkpt lat="43.43455" lon="1.44266">
        <ele>227.64268</ele>
        <time>2018-11-17T10:18:32Z</time>
      </trkpt>
      <trkpt lat="43.43452" lon="1.44311">
        <ele>227.85727</ele>
        <time>2018-11-17T10:19:09Z</time>
      </trkpt>
      <trkpt lat="43.43449" lon="1.44331">
        <ele>228.02301</ele>
        <time>2018-11-17T10:19:11Z</time>
      </trkpt>
      <trkpt lat="43.43446" lon="1.44344">
        <ele>228.05545</ele>
        <time>2018-11-17T10:19:13Z</time>
      </trkpt>
      <trkpt lat="43.43443" lon="1.44358">
        <ele>228.05841</ele>
        <time>2018-11-17T10:19:16Z</time>
      </trkpt>
      <trkpt lat="43.4344" lon="1.44372">
        <ele>227.83827</ele>
        <time>2018-11-17T10:19:21Z</time>
      </trkpt>
      <trkpt lat="43.43444" lon="1.4436">
        <ele>227.76671</ele>
        <time>2018-11-17T10:19:38Z</time>
      </trkpt>
      <trkpt lat="43.43446" lon="1.44347">
        <ele>227.42699</ele>
        <time>2018-11-17T10:19:44Z</time>
      </trkpt>
      <trkpt lat="43.43447" lon="1.44342">
        <ele>227.23387</ele>
        <time>2018-11-17T10:19:56Z</time>
      </trkpt>
      <trkpt lat="43.43447" lon="1.44342">
        <ele>227.23387</ele>
        <time>2018-11-17T10:19:56Z</time>
      </trkpt>
    </trkseg>
  </trk>
</gpx>